Observation data for Sierra Blanca on 05/24/2019      Previous  Date  Next       Current Mesonet Observations  Soil Data  Daily Summary Page  Observations in Plain Language
KSB1 240500Z 31009KT 21/M06 A30 RMK A01 T02141055  RH  016%=      5-min Rain = 0
KSB1 240501Z 32008KT 22/M06 A30 RMK A01 T02151055  RH  016%=      5-min Rain = 0
KSB1 240502Z 32008KT 22/M06 A30 RMK A01 T02161055  RH  016%=      5-min Rain = 0
KSB1 240503Z 31009KT 22/M06 A30 RMK A01 T02161055  RH  016%=      5-min Rain = 0
KSB1 240504Z 32010KT 22/M06 A30 RMK A01 T02161056  RH  016%=      5-min Rain = 0
KSB1 240505Z 32009KT 22/M06 A30 RMK A01 T02171056  RH  016%=      5-min Rain = 0
KSB1 240506Z 32008KT 22/M06 A30 RMK A01 T02181056  RH  015%=      5-min Rain = 0
KSB1 240507Z 32009KT 22/M06 A30 RMK A01 T02181057  RH  015%=      5-min Rain = 0
KSB1 240508Z 32010KT 22/M06 A30 RMK A01 T02191057  RH  015%=      5-min Rain = 0
KSB1 240509Z 32010KT 22/M06 A3001 RMK A01 T02191057  RH  015%=      5-min Rain = 0
KSB1 240510Z 31009KT 22/M06 A30 RMK A01 T02201057  RH  015%=      5-min Rain = 0
KSB1 240511Z 31009KT 22/M06 A3001 RMK A01 T02201057  RH  015%=      5-min Rain = 0
KSB1 240512Z 31010KT 22/M06 A3001 RMK A01 T02201058  RH  015%=      5-min Rain = 0
KSB1 240513Z 32008KT 22/M06 A3001 RMK A01 T02201057  RH  015%=      5-min Rain = 0
KSB1 240514Z 32008KT 22/M06 A3001 RMK A01 T02201057  RH  015%=      5-min Rain = 0
KSB1 240515Z 32008KT 22/M06 A3001 RMK A01 T02191057  RH  015%=      5-min Rain = 0
KSB1 240516Z 33008KT 22/M06 A3001 RMK A01 T02191057  RH  015%=      5-min Rain = 0
KSB1 240517Z 33007KT 22/M06 A3001 RMK A01 T02181056  RH  015%=      5-min Rain = 0
KSB1 240518Z 33007KT 22/M05 A3001 RMK A01 T02161054  RH  016%=      5-min Rain = 0
KSB1 240519Z 33007KT 21/M06 A3001 RMK A01 T02131055  RH  016%=      5-min Rain = 0
KSB1 240520Z 33009KT 21/M06 A3001 RMK A01 T02121055  RH  016%=      5-min Rain = 0
KSB1 240521Z 33008KT 21/M06 A3001 RMK A01 T02121056  RH  016%=      5-min Rain = 0
KSB1 240522Z 33008KT 21/M06 A3001 RMK A01 T02131055  RH  016%=      5-min Rain = 0
KSB1 240523Z 32008KT 21/M06 A3001 RMK A01 T02131055  RH  016%=      5-min Rain = 0
KSB1 240524Z 32007KT 21/M05 A3001 RMK A01 T02111054  RH  016%=      5-min Rain = 0
KSB1 240525Z 33007KT 21/M05 A3001 RMK A01 T02101054  RH  016%=      5-min Rain = 0
KSB1 240526Z 33008KT 21/M05 A3001 RMK A01 T02091054  RH  016%=      5-min Rain = 0
KSB1 240527Z 33007KT 21/M06 A3001 RMK A01 T02091055  RH  016%=      5-min Rain = 0
KSB1 240528Z 33009KT 21/M06 A3001 RMK A01 T02091055  RH  016%=      5-min Rain = 0
KSB1 240529Z 32010KT 21/M06 A3001 RMK A01 T02091055  RH  016%=      5-min Rain = 0
KSB1 240530Z 32009KT 21/M06 A3001 RMK A01 T02091055  RH  016%=      5-min Rain = 0
KSB1 240531Z 31010KT 21/M06 A3001 RMK A01 T02091055  RH  016%=      5-min Rain = 0
KSB1 240532Z 32009KT 21/M06 A3001 RMK A01 T02101055  RH  016%=      5-min Rain = 0
KSB1 240533Z 31011KT 21/M06 A3001 RMK A01 T02101055  RH  016%=      5-min Rain = 0
KSB1 240534Z 31009KT 21/M06 A3001 RMK A01 T02101056  RH  016%=      5-min Rain = 0
KSB1 240535Z 31008KT 21/M06 A3001 RMK A01 T02111055  RH  016%=      5-min Rain = 0
KSB1 240536Z 32009G14KT 21/M06 A3001 RMK A01 T02101055  RH  016%=      5-min Rain = 0
KSB1 240537Z 32010KT 21/M06 A3001 RMK A01 T02091055  RH  016%=      5-min Rain = 0
KSB1 240538Z 32009KT 21/M06 A3001 RMK A01 T02091055  RH  016%=      5-min Rain = 0
KSB1 240539Z 32011KT 21/M06 A3001 RMK A01 T02091056  RH  016%=      5-min Rain = 0
KSB1 240540Z 32009KT 21/M06 A3001 RMK A01 T02091056  RH  016%=      5-min Rain = 0
KSB1 240541Z 32010KT 21/M06 A3001 RMK A01 T02081056  RH  016%=      5-min Rain = 0
KSB1 240542Z 32010KT 21/M06 A3001 RMK A01 T02081056  RH  016%=      5-min Rain = 0
KSB1 240543Z 32009KT 21/M06 A3001 RMK A01 T02071056  RH  016%=      5-min Rain = 0
KSB1 240544Z 33008KT 21/M06 A3001 RMK A01 T02061057  RH  016%=      5-min Rain = 0
KSB1 240545Z 33009KT 21/M06 A3001 RMK A01 T02061056  RH  017%=      5-min Rain = 0
KSB1 240546Z 33009KT 20/M06 A3001 RMK A01 T02041056  RH  017%=      5-min Rain = 0
KSB1 240547Z 33009KT 20/M06 A3001 RMK A01 T02031056  RH  017%=      5-min Rain = 0
KSB1 240548Z 33008KT 20/M06 A3001 RMK A01 T02031056  RH  017%=      5-min Rain = 0
KSB1 240549Z 33008KT 20/M06 A3001 RMK A01 T02021056  RH  017%=      5-min Rain = 0
KSB1 240550Z 33007KT 20/M06 A3001 RMK A01 T02011056  RH  017%=      5-min Rain = 0
KSB1 240551Z 33008KT 20/M06 A3001 RMK A01 T02001056  RH  017%=      5-min Rain = 0
KSB1 240552Z 33009KT 20/M06 A3001 RMK A01 T01991056  RH  017%=      5-min Rain = 0
KSB1 240553Z 32009KT 20/M06 A3001 RMK A01 T01981056  RH  018%=      5-min Rain = 0
KSB1 240554Z 33009KT 20/M06 A3001 RMK A01 T01981056  RH  017%=      5-min Rain = 0
KSB1 240555Z 33007KT 20/M06 A3001 RMK A01 T01971056  RH  018%=      5-min Rain = 0
KSB1 240556Z 32008KT 20/M06 A3001 RMK A01 T01961056  RH  018%=      5-min Rain = 0
KSB1 240557Z 32008KT 20/M06 A3001 RMK A01 T01961056  RH  018%=      5-min Rain = 0
KSB1 240558Z 32008KT 20/M06 A3001 RMK A01 T01951057  RH  018%=      5-min Rain = 0
KSB1 240559Z 32009KT 20/M06 A3001 RMK A01 T01961057  RH  018%=      5-min Rain = 0
KSB1 240600Z 32009KT 20/M06 A3001 RMK A01 T01951058  RH  017%=      5-min Rain = 0
KSB1 240606Z 32011KT 20/M07 A3001 RMK A01 T01991065  RH  016%=      5-min Rain = 0
KSB1 240607Z 32011KT 20/M07 A3001 RMK A01 T01991066  RH  016%=      5-min Rain = 0
KSB1 240608Z 33011KT 20/M07 A3001 RMK A01 T01991067  RH  016%=      5-min Rain = 0
KSB1 240609Z 33013KT 20/M07 A3001 RMK A01 T01991068  RH  016%=      5-min Rain = 0
KSB1 240610Z 33012KT 20/M07 A3001 RMK A01 T02001068  RH  016%=      5-min Rain = 0
KSB1 240611Z 33011KT 20/M07 A3001 RMK A01 T02001069  RH  016%=      5-min Rain = 0
KSB1 240612Z 33012KT 20/M07 A3001 RMK A01 T02001069  RH  016%=      5-min Rain = 0
KSB1 240613Z 33012KT 20/M07 A3001 RMK A01 T02001068  RH  016%=      5-min Rain = 0
KSB1 240614Z 33012KT 20/M07 A3001 RMK A01 T02001069  RH  016%=      5-min Rain = 0
KSB1 240615Z 33012KT 20/M07 A3001 RMK A01 T02001070  RH  016%=      5-min Rain = 0
KSB1 240616Z 33011KT 20/M07 A3001 RMK A01 T02001070  RH  015%=      5-min Rain = 0
KSB1 240617Z 33009KT 20/M07 A3001 RMK A01 T02001069  RH  016%=      5-min Rain = 0
KSB1 240618Z 33008KT 20/M07 A3001 RMK A01 T01981068  RH  016%=      5-min Rain = 0
KSB1 240619Z 33009KT 20/M07 A3001 RMK A01 T01971067  RH  016%=      5-min Rain = 0
KSB1 240620Z 33011KT 20/M07 A3001 RMK A01 T01961067  RH  016%=      5-min Rain = 0
KSB1 240621Z 33011KT 20/M07 A30 RMK A01 T01951069  RH  016%=      5-min Rain = 0
KSB1 240622Z 33013KT 20/M07 A30 RMK A01 T01951069  RH  016%=      5-min Rain = 0
KSB1 240623Z 32012KT 20/M07 A30 RMK A01 T01971070  RH  016%=      5-min Rain = 0
KSB1 240624Z 32010KT 20/M07 A30 RMK A01 T01971070  RH  016%=      5-min Rain = 0
KSB1 240625Z 32010KT 20/M07 A30 RMK A01 T01971069  RH  016%=      5-min Rain = 0
KSB1 240626Z 32010KT 20/M07 A30 RMK A01 T01961069  RH  016%=      5-min Rain = 0
KSB1 240627Z 31011KT 20/M07 A30 RMK A01 T01951069  RH  016%=      5-min Rain = 0
KSB1 240628Z 31010KT 20/M07 A30 RMK A01 T01961069  RH  016%=      5-min Rain = 0
KSB1 240629Z 32010KT 20/M07 A30 RMK A01 T01961070  RH  016%=      5-min Rain = 0
KSB1 240630Z 32011KT 20/M07 A30 RMK A01 T01951071  RH  016%=      5-min Rain = 0
KSB1 240631Z 31012KT 20/M07 A30 RMK A01 T01961072  RH  016%=      5-min Rain = 0
KSB1 240632Z 31014KT 20/M07 A30 RMK A01 T01981074  RH  015%=      5-min Rain = 0
KSB1 240633Z 32012KT 20/M07 A30 RMK A01 T02001074  RH  015%=      5-min Rain = 0
KSB1 240634Z 32012KT 20/M08 A30 RMK A01 T02011075  RH  015%=      5-min Rain = 0
KSB1 240635Z 31012KT 20/M07 A30 RMK A01 T02021074  RH  015%=      5-min Rain = 0
KSB1 240636Z 31013KT 20/M08 A30 RMK A01 T02031075  RH  015%=      5-min Rain = 0
KSB1 240637Z 31012KT 20/M08 A30 RMK A01 T02041075  RH  014%=      5-min Rain = 0
KSB1 240638Z 31012KT 21/M08 A30 RMK A01 T02061075  RH  014%=      5-min Rain = 0
KSB1 240639Z 32012KT 21/M08 A30 RMK A01 T02061076  RH  014%=      5-min Rain = 0
KSB1 240640Z 31012KT 21/M08 A30 RMK A01 T02061077  RH  014%=      5-min Rain = 0
KSB1 240641Z 31012KT 21/M08 A30 RMK A01 T02071077  RH  014%=      5-min Rain = 0
KSB1 240642Z 31011KT 21/M08 A30 RMK A01 T02071077  RH  014%=      5-min Rain = 0
KSB1 240643Z 32010KT 21/M08 A30 RMK A01 T02061077  RH  014%=      5-min Rain = 0
KSB1 240644Z 31011KT 21/M08 A30 RMK A01 T02061076  RH  014%=      5-min Rain = 0
KSB1 240645Z 32010KT 21/M08 A30 RMK A01 T02051076  RH  014%=      5-min Rain = 0
KSB1 240646Z 31010KT 21/M08 A30 RMK A01 T02051076  RH  014%=      5-min Rain = 0
KSB1 240647Z 33009KT 20/M08 A30 RMK A01 T02041076  RH  014%=      5-min Rain = 0
KSB1 240648Z 33009KT 20/M08 A30 RMK A01 T02041075  RH  015%=      5-min Rain = 0
KSB1 240649Z 33010KT 20/M08 A30 RMK A01 T02031075  RH  015%=      5-min Rain = 0
KSB1 240650Z 33010KT 20/M08 A30 RMK A01 T02021075  RH  015%=      5-min Rain = 0
KSB1 240651Z 33009KT 20/M08 A30 RMK A01 T02021075  RH  015%=      5-min Rain = 0
KSB1 240652Z 33009KT 20/M08 A30 RMK A01 T02011075  RH  015%=      5-min Rain = 0
KSB1 240653Z 33010KT 20/M08 A30 RMK A01 T02001075  RH  015%=      5-min Rain = 0
KSB1 240654Z 33009KT 20/M08 A30 RMK A01 T01991075  RH  015%=      5-min Rain = 0
KSB1 240655Z 33010KT 20/M08 A30 RMK A01 T01981075  RH  015%=      5-min Rain = 0
KSB1 240656Z 33009KT 20/M07 A30 RMK A01 T01971074  RH  015%=      5-min Rain = 0
KSB1 240657Z 33009KT 20/M07 A3001 RMK A01 T01961074  RH  015%=      5-min Rain = 0
KSB1 240658Z 32010KT 20/M07 A3001 RMK A01 T01951074  RH  016%=      5-min Rain = 0
KSB1 240659Z 33009KT 20/M07 A3001 RMK A01 T01951074  RH  016%=      5-min Rain = 0
KSB1 240700Z 33007KT 19/M07 A3001 RMK A01 T01941073  RH  016%=      5-min Rain = 0
KSB1 240701Z 33008KT 19/M07 A3001 RMK A01 T01931073  RH  016%=      5-min Rain = 0
KSB1 240702Z 33009KT 19/M07 A3001 RMK A01 T01921073  RH  016%=      5-min Rain = 0
KSB1 240703Z 33009KT 19/M07 A3001 RMK A01 T01921074  RH  016%=      5-min Rain = 0
KSB1 240704Z 33008KT 19/M07 A3001 RMK A01 T01921074  RH  016%=      5-min Rain = 0
KSB1 240705Z 33008KT 19/M07 A3001 RMK A01 T01921074  RH  016%=      5-min Rain = 0
KSB1 240706Z 33008KT 19/M07 A3001 RMK A01 T01921074  RH  016%=      5-min Rain = 0
KSB1 240707Z 33007KT 19/M07 A3001 RMK A01 T01921074  RH  016%=      5-min Rain = 0
KSB1 240708Z 34007KT 19/M07 A3001 RMK A01 T01921073  RH  016%=      5-min Rain = 0
KSB1 240709Z 34007KT 19/M07 A3001 RMK A01 T01911073  RH  016%=      5-min Rain = 0
KSB1 240710Z 34008KT 19/M07 A3001 RMK A01 T01901072  RH  016%=      5-min Rain = 0
KSB1 240711Z 33008KT 19/M07 A3001 RMK A01 T01891072  RH  016%=      5-min Rain = 0
KSB1 240712Z 34008KT 19/M07 A3001 RMK A01 T01891073  RH  016%=      5-min Rain = 0
KSB1 240713Z 34008KT 19/M07 A3001 RMK A01 T01891073  RH  016%=      5-min Rain = 0
KSB1 240714Z 34007KT 19/M07 A3001 RMK A01 T01881073  RH  016%=      5-min Rain = 0
KSB1 240715Z 34006KT 19/M07 A3001 RMK A01 T01881072  RH  016%=      5-min Rain = 0
KSB1 240716Z 34007KT 19/M07 A3001 RMK A01 T01871072  RH  017%=      5-min Rain = 0
KSB1 240717Z 34007KT 19/M07 A3001 RMK A01 T01861071  RH  017%=      5-min Rain = 0
KSB1 240718Z 34007KT 19/M07 A3001 RMK A01 T01851071  RH  017%=      5-min Rain = 0
KSB1 240719Z 34007KT 19/M07 A3001 RMK A01 T01851071  RH  017%=      5-min Rain = 0
KSB1 240720Z 35008KT 19/M07 A3001 RMK A01 T01851072  RH  017%=      5-min Rain = 0
KSB1 240721Z 35008KT 19/M07 A3001 RMK A01 T01851072  RH  017%=      5-min Rain = 0
KSB1 240722Z 35007KT 19/M07 A3001 RMK A01 T01851073  RH  017%=      5-min Rain = 0
KSB1 240723Z 34007KT 19/M07 A3001 RMK A01 T01851073  RH  017%=      5-min Rain = 0
KSB1 240724Z 34008KT 19/M07 A3002 RMK A01 T01851073  RH  017%=      5-min Rain = 0
KSB1 240725Z 34008KT 19/M07 A3002 RMK A01 T01861074  RH  016%=      5-min Rain = 0
KSB1 240726Z 34008KT 19/M08 A3002 RMK A01 T01871075  RH  016%=      5-min Rain = 0
KSB1 240727Z 34007KT 19/M08 A3002 RMK A01 T01881075  RH  016%=      5-min Rain = 0
KSB1 240728Z 34007KT 19/M08 A3002 RMK A01 T01891076  RH  016%=      5-min Rain = 0
KSB1 240729Z 35006KT 19/M08 A3002 RMK A01 T01901076  RH  016%=      5-min Rain = 0
KSB1 240730Z 34006KT 19/M08 A3002 RMK A01 T01901075  RH  016%=      5-min Rain = 0
KSB1 240731Z 35006KT 19/M08 A3002 RMK A01 T01891075  RH  016%=      5-min Rain = 0
KSB1 240732Z 34007KT 19/M07 A3002 RMK A01 T01881074  RH  016%=      5-min Rain = 0
KSB1 240733Z 35006KT 19/M07 A3002 RMK A01 T01871074  RH  016%=      5-min Rain = 0
KSB1 240734Z 34007KT 19/M07 A3002 RMK A01 T01871074  RH  016%=      5-min Rain = 0
KSB1 240735Z 34006KT 19/M08 A3002 RMK A01 T01871075  RH  016%=      5-min Rain = 0
KSB1 240736Z 34006KT 19/M08 A3002 RMK A01 T01871075  RH  016%=      5-min Rain = 0
KSB1 240737Z 33007KT 19/M08 A3002 RMK A01 T01871076  RH  016%=      5-min Rain = 0
KSB1 240738Z 33007KT 19/M08 A3002 RMK A01 T01871076  RH  016%=      5-min Rain = 0
KSB1 240739Z 33006KT 19/M08 A3002 RMK A01 T01881076  RH  016%=      5-min Rain = 0
KSB1 240740Z 33007KT 19/M08 A3002 RMK A01 T01881076  RH  016%=      5-min Rain = 0
KSB1 240741Z 32006KT 19/M08 A3002 RMK A01 T01881076  RH  016%=      5-min Rain = 0
KSB1 240742Z 33007KT 19/M08 A3002 RMK A01 T01881076  RH  016%=      5-min Rain = 0
KSB1 240743Z 33007KT 19/M08 A3002 RMK A01 T01881076  RH  016%=      5-min Rain = 0
KSB1 240744Z 32006KT 19/M08 A3002 RMK A01 T01881077  RH  016%=      5-min Rain = 0
KSB1 240745Z 33008KT 19/M08 A3002 RMK A01 T01891077  RH  016%=      5-min Rain = 0
KSB1 240746Z 32006KT 19/M08 A3002 RMK A01 T01891077  RH  016%=      5-min Rain = 0
KSB1 240747Z 33007KT 19/M08 A3002 RMK A01 T01891077  RH  016%=      5-min Rain = 0
KSB1 240748Z 33008KT 19/M08 A3001 RMK A01 T01891076  RH  016%=      5-min Rain = 0
KSB1 240749Z 34007KT 19/M08 A3001 RMK A01 T01891076  RH  016%=      5-min Rain = 0
KSB1 240750Z 33008KT 19/M08 A3001 RMK A01 T01891076  RH  016%=      5-min Rain = 0
KSB1 240751Z 33007KT 19/M08 A3002 RMK A01 T01891076  RH  016%=      5-min Rain = 0
KSB1 240752Z 35007KT 19/M08 A3002 RMK A01 T01891076  RH  016%=      5-min Rain = 0
KSB1 240753Z 01004KT 19/M08 A3002 RMK A01 T01891076  RH  016%=      5-min Rain = 0
KSB1 240754Z 11003KT 19/M07 A3002 RMK A01 T01851073  RH  017%=      5-min Rain = 0
KSB1 240755Z 13004KT 18/M07 A3002 RMK A01 T01801072  RH  017%=      5-min Rain = 0
KSB1 240756Z 13004KT 18/M07 A3002 RMK A01 T01751071  RH  018%=      5-min Rain = 0
KSB1 240757Z 10004KT 17/M07 A3002 RMK A01 T01731072  RH  018%=      5-min Rain = 0
KSB1 240758Z 10003KT 17/M07 A3002 RMK A01 T01721073  RH  018%=      5-min Rain = 0
KSB1 240759Z 06002KT 17/M07 A3002 RMK A01 T01721073  RH  018%=      5-min Rain = 0
KSB1 240800Z 03003KT 17/M07 A3002 RMK A01 T01721074  RH  018%=      5-min Rain = 0
KSB1 240801Z 00003KT 18/M08 A3002 RMK A01 T01751076  RH  017%=      5-min Rain = 0
KSB1 240802Z 36001KT 18/M07 A3002 RMK A01 T01781073  RH  017%=      5-min Rain = 0
KSB1 240803Z 36003KT 18/M07 A3001 RMK A01 T01751072  RH  018%=      5-min Rain = 0
KSB1 240804Z 02003KT 17/M07 A3001 RMK A01 T01741074  RH  018%=      5-min Rain = 0
KSB1 240805Z 01002KT 17/M07 A3001 RMK A01 T01741074  RH  018%=      5-min Rain = 0
KSB1 240806Z 03004KT 18/M08 A3001 RMK A01 T01751075  RH  017%=      5-min Rain = 0
KSB1 240807Z 04003KT 18/M07 A3001 RMK A01 T01761073  RH  018%=      5-min Rain = 0
KSB1 240808Z 07003KT 17/M07 A3001 RMK A01 T01741072  RH  018%=      5-min Rain = 0
KSB1 240809Z 04002KT 17/M07 A3001 RMK A01 T01711072  RH  018%=      5-min Rain = 0
KSB1 240810Z 06002KT 17/M07 A3001 RMK A01 T01691072  RH  019%=      5-min Rain = 0
KSB1 240811Z 04002KT 17/M07 A3001 RMK A01 T01681072  RH  019%=      5-min Rain = 0
KSB1 240812Z 07002KT 17/M07 A3001 RMK A01 T01681072  RH  019%=      5-min Rain = 0
KSB1 240813Z 11003KT 17/M07 A3001 RMK A01 T01681072  RH  019%=      5-min Rain = 0
KSB1 240814Z 12002KT 17/M07 A3001 RMK A01 T01661069  RH  019%=      5-min Rain = 0
KSB1 240815Z 12001KT 16/M07 A3001 RMK A01 T01641068  RH  020%=      5-min Rain = 0
KSB1 240816Z 34001KT 16/M07 A3001 RMK A01 T01631070  RH  020%=      5-min Rain = 0
KSB1 240817Z 32002KT 16/M07 A3001 RMK A01 T01621074  RH  019%=      5-min Rain = 0
KSB1 240818Z 34002KT 16/M07 A3001 RMK A01 T01631074  RH  019%=      5-min Rain = 0
KSB1 240819Z 34002KT 17/M07 A3001 RMK A01 T01651074  RH  019%=      5-min Rain = 0
KSB1 240820Z 34002KT 17/M08 A3001 RMK A01 T01671075  RH  018%=      5-min Rain = 0
KSB1 240821Z 33003KT 17/M08 A3001 RMK A01 T01701075  RH  018%=      5-min Rain = 0
KSB1 240822Z 34004KT 17/M08 A3001 RMK A01 T01721075  RH  018%=      5-min Rain = 0
KSB1 240823Z 34004KT 17/M08 A3001 RMK A01 T01731075  RH  018%=      5-min Rain = 0
KSB1 240824Z 33003KT 17/M08 A3001 RMK A01 T01741075  RH  018%=      5-min Rain = 0
KSB1 240825Z 32003KT 18/M08 A3001 RMK A01 T01751075  RH  017%=      5-min Rain = 0
KSB1 240826Z 32003KT 18/M08 A3001 RMK A01 T01751075  RH  017%=      5-min Rain = 0
KSB1 240827Z 32004KT 18/M07 A3001 RMK A01 T01751074  RH  017%=      5-min Rain = 0
KSB1 240828Z 33004KT 18/M07 A3001 RMK A01 T01751074  RH  018%=      5-min Rain = 0
KSB1 240829Z 32005KT 18/M07 A3001 RMK A01 T01751074  RH  018%=      5-min Rain = 0
KSB1 240830Z 33006KT 17/M07 A3001 RMK A01 T01731072  RH  018%=      5-min Rain = 0
KSB1 240831Z 33007KT 17/M07 A3001 RMK A01 T01711074  RH  018%=      5-min Rain = 0
KSB1 240832Z 34007KT 17/M07 A3001 RMK A01 T01721074  RH  018%=      5-min Rain = 0
KSB1 240833Z 33007KT 17/M08 A3001 RMK A01 T01731077  RH  017%=      5-min Rain = 0
KSB1 240834Z 33007KT 18/M08 A3001 RMK A01 T01751077  RH  017%=      5-min Rain = 0
KSB1 240835Z 32006KT 18/M08 A3001 RMK A01 T01761076  RH  017%=      5-min Rain = 0
KSB1 240836Z 33007KT 18/M08 A3001 RMK A01 T01771076  RH  017%=      5-min Rain = 0
KSB1 240837Z 34008KT 18/M08 A3001 RMK A01 T01781077  RH  017%=      5-min Rain = 0
KSB1 240838Z 34007KT 18/M08 A3002 RMK A01 T01791078  RH  017%=      5-min Rain = 0
KSB1 240839Z 34005KT 18/M08 A3002 RMK A01 T01801078  RH  017%=      5-min Rain = 0
KSB1 240840Z 09002KT 18/M07 A3002 RMK A01 T01781072  RH  018%=      5-min Rain = 0
KSB1 240841Z 10002KT 17/M07 A3002 RMK A01 T01721071  RH  018%=      5-min Rain = 0
KSB1 240842Z 08001KT 17/M07 A3002 RMK A01 T01671074  RH  018%=      5-min Rain = 0
KSB1 240843Z 04001KT 17/M08 A3002 RMK A01 T01651075  RH  019%=      5-min Rain = 0
KSB1 240844Z 01001KT 17/M08 A3002 RMK A01 T01651076  RH  018%=      5-min Rain = 0
KSB1 240845Z 33002KT 17/M08 A3002 RMK A01 T01651075  RH  019%=      5-min Rain = 0
KSB1 240846Z 32003KT 17/M08 A3002 RMK A01 T01651075  RH  019%=      5-min Rain = 0
KSB1 240847Z 32004KT 17/M08 A3002 RMK A01 T01661075  RH  018%=      5-min Rain = 0
KSB1 240848Z 32005KT 17/M08 A3002 RMK A01 T01681075  RH  018%=      5-min Rain = 0
KSB1 240849Z 32005KT 17/M08 A3002 RMK A01 T01691076  RH  018%=      5-min Rain = 0
KSB1 240850Z 32005KT 17/M08 A3002 RMK A01 T01701075  RH  018%=      5-min Rain = 0
KSB1 240851Z 32005KT 17/M08 A3002 RMK A01 T01711075  RH  018%=      5-min Rain = 0
KSB1 240852Z 33005KT 17/M08 A3002 RMK A01 T01711076  RH  018%=      5-min Rain = 0
KSB1 240853Z 34005KT 17/M08 A3002 RMK A01 T01721077  RH  018%=      5-min Rain = 0
KSB1 240854Z 33005KT 17/M08 A3002 RMK A01 T01731077  RH  017%=      5-min Rain = 0
KSB1 240855Z 33005KT 17/M08 A3002 RMK A01 T01731077  RH  017%=      5-min Rain = 0
KSB1 240856Z 33005KT 17/M08 A3002 RMK A01 T01731076  RH  018%=      5-min Rain = 0
KSB1 240857Z 33006KT 17/M08 A3002 RMK A01 T01721076  RH  018%=      5-min Rain = 0
KSB1 240858Z 34005KT 17/M08 A3002 RMK A01 T01731076  RH  018%=      5-min Rain = 0
KSB1 240859Z 34006KT 17/M08 A3002 RMK A01 T01721076  RH  018%=      5-min Rain = 0
KSB1 240900Z 34005KT 17/M08 A3002 RMK A01 T01711076  RH  018%=      5-min Rain = 0
KSB1 240901Z 00004KT 17/M08 A3002 RMK A01 T01711077  RH  018%=      5-min Rain = 0
KSB1 240902Z 09003KT 17/M07 A3002 RMK A01 T01681073  RH  018%=      5-min Rain = 0
KSB1 240903Z 05003KT 16/M07 A3002 RMK A01 T01621072  RH  019%=      5-min Rain = 0
KSB1 240904Z 04004KT 16/M08 A3002 RMK A01 T01601075  RH  019%=      5-min Rain = 0
KSB1 240905Z 36004KT 16/M08 A3002 RMK A01 T01621076  RH  019%=      5-min Rain = 0
KSB1 240906Z 34003KT 16/M08 A3002 RMK A01 T01631076  RH  019%=      5-min Rain = 0
KSB1 240907Z 33003KT 17/M08 A3002 RMK A01 T01651077  RH  018%=      5-min Rain = 0
KSB1 240908Z 33004KT 17/M08 A3002 RMK A01 T01671076  RH  018%=      5-min Rain = 0
KSB1 240909Z 32004KT 17/M08 A3002 RMK A01 T01671075  RH  018%=      5-min Rain = 0
KSB1 240910Z 33005KT 17/M08 A3002 RMK A01 T01661075  RH  018%=      5-min Rain = 0
KSB1 240911Z 34003KT 17/M08 A3002 RMK A01 T01661076  RH  018%=      5-min Rain = 0
KSB1 240912Z 36003KT 17/M08 A3002 RMK A01 T01681078  RH  018%=      5-min Rain = 0
KSB1 240913Z 05003KT 17/M08 A3002 RMK A01 T01691076  RH  018%=      5-min Rain = 0
KSB1 240914Z 09003KT 17/M07 A3002 RMK A01 T01661073  RH  019%=      5-min Rain = 0
KSB1 240915Z 09001KT 16/M07 A3002 RMK A01 T01601072  RH  020%=      5-min Rain = 0
KSB1 240916Z 03001KT 16/M07 A3002 RMK A01 T01571074  RH  020%=      5-min Rain = 0
KSB1 240917Z 01001KT 16/M08 A3002 RMK A01 T01561076  RH  020%=      5-min Rain = 0
KSB1 240918Z 01001KT 16/M08 A3002 RMK A01 T01561077  RH  019%=      5-min Rain = 0
KSB1 240919Z 34002KT 16/M08 A3002 RMK A01 T01571077  RH  019%=      5-min Rain = 0
KSB1 240920Z 34003KT 16/M08 A3002 RMK A01 T01591076  RH  019%=      5-min Rain = 0
KSB1 240921Z 34003KT 16/M08 A3002 RMK A01 T01611077  RH  019%=      5-min Rain = 0
KSB1 240922Z 33003KT 16/M08 A3002 RMK A01 T01631076  RH  019%=      5-min Rain = 0
KSB1 240923Z 33003KT 17/M08 A3002 RMK A01 T01651077  RH  018%=      5-min Rain = 0
KSB1 240924Z 33003KT 17/M08 A3002 RMK A01 T01671077  RH  018%=      5-min Rain = 0
KSB1 240925Z 33003KT 17/M08 A3002 RMK A01 T01691078  RH  018%=      5-min Rain = 0
KSB1 240926Z 32003KT 17/M08 A3002 RMK A01 T01711078  RH  017%=      5-min Rain = 0
KSB1 240927Z 32003KT 17/M08 A3002 RMK A01 T01721077  RH  018%=      5-min Rain = 0
KSB1 240928Z 32004KT 17/M08 A3002 RMK A01 T01721077  RH  018%=      5-min Rain = 0
KSB1 240929Z 32005KT 17/M08 A3002 RMK A01 T01721076  RH  018%=      5-min Rain = 0
KSB1 240930Z 32005KT 17/M08 A3002 RMK A01 T01721076  RH  018%=      5-min Rain = 0
KSB1 240931Z 32004KT 17/M08 A3002 RMK A01 T01711076  RH  018%=      5-min Rain = 0
KSB1 240932Z 32005KT 17/M08 A3002 RMK A01 T01711077  RH  018%=      5-min Rain = 0
KSB1 240933Z 32005KT 17/M08 A3002 RMK A01 T01711076  RH  018%=      5-min Rain = 0
KSB1 240934Z 33005KT 17/M08 A3002 RMK A01 T01721076  RH  018%=      5-min Rain = 0
KSB1 240935Z 33005KT 17/M08 A3002 RMK A01 T01721077  RH  018%=      5-min Rain = 0
KSB1 240936Z 33005KT 17/M08 A3002 RMK A01 T01721076  RH  018%=      5-min Rain = 0
KSB1 240937Z 34005KT 17/M08 A3002 RMK A01 T01721076  RH  018%=      5-min Rain = 0
KSB1 240938Z 35006KT 17/M08 A3002 RMK A01 T01711075  RH  018%=      5-min Rain = 0
KSB1 240939Z 34005KT 17/M08 A3002 RMK A01 T01691075  RH  018%=      5-min Rain = 0
KSB1 240940Z 35006KT 17/M07 A3002 RMK A01 T01681074  RH  018%=      5-min Rain = 0
KSB1 240941Z 35006KT 17/M07 A3002 RMK A01 T01671073  RH  019%=      5-min Rain = 0
KSB1 240942Z 35005KT 17/M07 A3002 RMK A01 T01661073  RH  019%=      5-min Rain = 0
KSB1 240943Z 34005KT 17/M07 A3002 RMK A01 T01651072  RH  019%=      5-min Rain = 0
KSB1 240944Z 34005KT 16/M07 A3002 RMK A01 T01641073  RH  019%=      5-min Rain = 0
KSB1 240945Z 34005KT 17/M07 A3002 RMK A01 T01651074  RH  019%=      5-min Rain = 0
KSB1 240946Z 35005KT 17/M07 A3002 RMK A01 T01651074  RH  019%=      5-min Rain = 0
KSB1 240947Z 34005KT 17/M07 A3002 RMK A01 T01661074  RH  019%=      5-min Rain = 0
KSB1 240948Z 35005KT 17/M07 A3002 RMK A01 T01661074  RH  019%=      5-min Rain = 0
KSB1 240949Z 35005KT 17/M08 A3002 RMK A01 T01671075  RH  018%=      5-min Rain = 0
KSB1 240950Z 34005KT 17/M07 A3002 RMK A01 T01681074  RH  018%=      5-min Rain = 0
KSB1 240951Z 33005KT 17/M07 A3002 RMK A01 T01681074  RH  018%=      5-min Rain = 0
KSB1 240952Z 33006KT 17/M07 A3002 RMK A01 T01671074  RH  018%=      5-min Rain = 0
KSB1 240953Z 34005KT 17/M07 A3002 RMK A01 T01681073  RH  018%=      5-min Rain = 0
KSB1 240954Z 34006KT 17/M07 A3003 RMK A01 T01671073  RH  019%=      5-min Rain = 0
KSB1 240955Z 33006KT 17/M07 A3003 RMK A01 T01671073  RH  019%=      5-min Rain = 0
KSB1 240956Z 33006KT 17/M07 A3002 RMK A01 T01671073  RH  019%=      5-min Rain = 0
KSB1 240957Z 33005KT 17/M07 A3002 RMK A01 T01671072  RH  019%=      5-min Rain = 0
KSB1 240958Z 33005KT 17/M07 A3003 RMK A01 T01671072  RH  019%=      5-min Rain = 0
KSB1 240959Z 33005KT 17/M07 A3003 RMK A01 T01671072  RH  019%=      5-min Rain = 0
KSB1 241000Z 32006KT 17/M07 A3003 RMK A01 T01661072  RH  019%=      5-min Rain = 0
KSB1 241001Z 32006KT 17/M07 A3003 RMK A01 T01661072  RH  019%=      5-min Rain = 0
KSB1 241002Z 33006KT 17/M07 A3003 RMK A01 T01661071  RH  019%=      5-min Rain = 0
KSB1 241003Z 33007KT 17/M07 A3003 RMK A01 T01661072  RH  019%=      5-min Rain = 0
KSB1 241004Z 33007KT 17/M07 A3003 RMK A01 T01661072  RH  019%=      5-min Rain = 0
KSB1 241005Z 34007KT 17/M07 A3003 RMK A01 T01671072  RH  019%=      5-min Rain = 0
KSB1 241006Z 33007KT 17/M07 A3003 RMK A01 T01681072  RH  019%=      5-min Rain = 0
KSB1 241007Z 34006KT 17/M07 A3003 RMK A01 T01681072  RH  019%=      5-min Rain = 0
KSB1 241008Z 34007KT 17/M07 A3003 RMK A01 T01681072  RH  019%=      5-min Rain = 0
KSB1 241009Z 34006KT 17/M07 A3003 RMK A01 T01691072  RH  019%=      5-min Rain = 0
KSB1 241010Z 34005KT 17/M07 A3003 RMK A01 T01691070  RH  019%=      5-min Rain = 0
KSB1 241011Z 34004KT 16/M07 A3003 RMK A01 T01641068  RH  020%=      5-min Rain = 0
KSB1 241012Z 34005KT 16/M07 A3003 RMK A01 T01601068  RH  020%=      5-min Rain = 0
KSB1 241013Z 34005KT 16/M07 A3003 RMK A01 T01581068  RH  020%=      5-min Rain = 0
KSB1 241014Z 33004KT 16/M07 A3003 RMK A01 T01571067  RH  021%=      5-min Rain = 0
KSB1 241015Z 33005KT 16/M07 A3003 RMK A01 T01551068  RH  021%=      5-min Rain = 0
KSB1 241016Z 33006KT 15/M07 A3003 RMK A01 T01541068  RH  021%=      5-min Rain = 0
KSB1 241017Z 34006KT 15/M07 A3003 RMK A01 T01541069  RH  021%=      5-min Rain = 0
KSB1 241018Z 34005KT 15/M07 A3003 RMK A01 T01531067  RH  021%=      5-min Rain = 0
KSB1 241019Z 34005KT 15/M07 A3003 RMK A01 T01521066  RH  022%=      5-min Rain = 0
KSB1 241020Z 34005KT 15/M07 A3003 RMK A01 T01511066  RH  022%=      5-min Rain = 0
KSB1 241021Z 33005KT 15/M07 A3003 RMK A01 T01501067  RH  022%=      5-min Rain = 0
KSB1 241022Z 34005KT 15/M07 A3003 RMK A01 T01501067  RH  022%=      5-min Rain = 0
KSB1 241023Z 33005KT 15/M07 A3003 RMK A01 T01491067  RH  022%=      5-min Rain = 0
KSB1 241024Z 34006KT 15/M07 A3003 RMK A01 T01511068  RH  022%=      5-min Rain = 0
KSB1 241025Z 34006KT 15/M07 A3003 RMK A01 T01531069  RH  021%=      5-min Rain = 0
KSB1 241026Z 33006KT 16/M07 A3003 RMK A01 T01561069  RH  021%=      5-min Rain = 0
KSB1 241027Z 33006KT 16/M07 A3003 RMK A01 T01591068  RH  020%=      5-min Rain = 0
KSB1 241028Z 33006KT 16/M07 A3003 RMK A01 T01611069  RH  020%=      5-min Rain = 0
KSB1 241029Z 33007KT 16/M07 A3003 RMK A01 T01621069  RH  020%=      5-min Rain = 0
KSB1 241030Z 33007KT 16/M07 A3003 RMK A01 T01641069  RH  020%=      5-min Rain = 0
KSB1 241031Z 33007KT 17/M07 A3003 RMK A01 T01651068  RH  020%=      5-min Rain = 0
KSB1 241032Z 33007KT 17/M07 A3003 RMK A01 T01651068  RH  020%=      5-min Rain = 0
KSB1 241033Z 33007KT 17/M07 A3003 RMK A01 T01651068  RH  020%=      5-min Rain = 0
KSB1 241034Z 34007KT 17/M07 A3003 RMK A01 T01651068  RH  020%=      5-min Rain = 0
KSB1 241035Z 33007KT 16/M07 A3003 RMK A01 T01641067  RH  020%=      5-min Rain = 0
KSB1 241036Z 33007KT 16/M07 A3003 RMK A01 T01631067  RH  020%=      5-min Rain = 0
KSB1 241037Z 33007KT 16/M07 A3003 RMK A01 T01621066  RH  020%=      5-min Rain = 0
KSB1 241038Z 33008KT 16/M07 A3003 RMK A01 T01621066  RH  020%=      5-min Rain = 0
KSB1 241039Z 32008KT 16/M07 A3003 RMK A01 T01621066  RH  020%=      5-min Rain = 0
KSB1 241040Z 32008KT 16/M07 A3003 RMK A01 T01621066  RH  020%=      5-min Rain = 0
KSB1 241041Z 33007KT 16/M07 A3003 RMK A01 T01641066  RH  020%=      5-min Rain = 0
KSB1 241042Z 33007KT 17/M07 A3003 RMK A01 T01651065  RH  020%=      5-min Rain = 0
KSB1 241043Z 33007KT 17/M07 A3003 RMK A01 T01661066  RH  020%=      5-min Rain = 0
KSB1 241044Z 33007KT 17/M07 A3003 RMK A01 T01661066  RH  020%=      5-min Rain = 0
KSB1 241045Z 33008KT 17/M07 A3003 RMK A01 T01661065  RH  020%=      5-min Rain = 0
KSB1 241046Z 33008KT 17/M06 A3003 RMK A01 T01661064  RH  020%=      5-min Rain = 0
KSB1 241047Z 33008KT 17/M06 A3003 RMK A01 T01651064  RH  020%=      5-min Rain = 0
KSB1 241048Z 33008KT 17/M06 A3003 RMK A01 T01651064  RH  020%=      5-min Rain = 0
KSB1 241049Z 33008KT 17/M06 A3003 RMK A01 T01651063  RH  020%=      5-min Rain = 0
KSB1 241050Z 33008KT 17/M06 A3003 RMK A01 T01651063  RH  020%=      5-min Rain = 0
KSB1 241051Z 33008KT 17/M06 A3003 RMK A01 T01651063  RH  020%=      5-min Rain = 0
KSB1 241052Z 33008KT 17/M06 A3003 RMK A01 T01651063  RH  020%=      5-min Rain = 0
KSB1 241053Z 33008KT 17/M06 A3003 RMK A01 T01651063  RH  020%=      5-min Rain = 0
KSB1 241054Z 33008KT 17/M06 A3003 RMK A01 T01651063  RH  020%=      5-min Rain = 0
KSB1 241055Z 33009KT 17/M06 A3003 RMK A01 T01651063  RH  020%=      5-min Rain = 0
KSB1 241056Z 33009KT 16/M06 A3003 RMK A01 T01641063  RH  021%=      5-min Rain = 0
KSB1 241057Z 33009KT 16/M06 A3003 RMK A01 T01641062  RH  021%=      5-min Rain = 0
KSB1 241058Z 33009KT 16/M06 A3003 RMK A01 T01641062  RH  021%=      5-min Rain = 0
KSB1 241059Z 32009KT 16/M06 A3003 RMK A01 T01641062  RH  021%=      5-min Rain = 0
KSB1 241100Z 33009KT 17/M06 A3002 RMK A01 T01651062  RH  020%=      5-min Rain = 0
KSB1 241101Z 33009KT 17/M06 A3002 RMK A01 T01661063  RH  020%=      5-min Rain = 0
KSB1 241102Z 33009KT 17/M06 A3002 RMK A01 T01671062  RH  020%=      5-min Rain = 0
KSB1 241103Z 33009KT 17/M06 A3002 RMK A01 T01661062  RH  020%=      5-min Rain = 0
KSB1 241104Z 33008KT 17/M06 A3002 RMK A01 T01661062  RH  020%=      5-min Rain = 0
KSB1 241105Z 33009KT 17/M06 A3003 RMK A01 T01671061  RH  021%=      5-min Rain = 0
KSB1 241106Z 33009KT 17/M06 A3003 RMK A01 T01661061  RH  021%=      5-min Rain = 0
KSB1 241107Z 33009KT 17/M06 A3003 RMK A01 T01661061  RH  021%=      5-min Rain = 0
KSB1 241108Z 33009KT 17/M06 A3003 RMK A01 T01661060  RH  021%=      5-min Rain = 0
KSB1 241109Z 33009KT 17/M06 A3003 RMK A01 T01651060  RH  021%=      5-min Rain = 0
KSB1 241110Z 33009KT 16/M06 A3003 RMK A01 T01641060  RH  021%=      5-min Rain = 0
KSB1 241111Z 33009KT 16/M06 A3003 RMK A01 T01641060  RH  021%=      5-min Rain = 0
KSB1 241112Z 33009KT 16/M06 A3003 RMK A01 T01641060  RH  021%=      5-min Rain = 0
KSB1 241113Z 33009KT 16/M06 A3003 RMK A01 T01641060  RH  021%=      5-min Rain = 0
KSB1 241114Z 33008KT 17/M06 A3003 RMK A01 T01651059  RH  021%=      5-min Rain = 0
KSB1 241115Z 33009KT 17/M06 A3003 RMK A01 T01651059  RH  021%=      5-min Rain = 0
KSB1 241116Z 33008KT 17/M06 A3003 RMK A01 T01651058  RH  021%=      5-min Rain = 0
KSB1 241117Z 33009KT 16/M06 A3003 RMK A01 T01641058  RH  021%=      5-min Rain = 0
KSB1 241118Z 33008KT 16/M06 A3003 RMK A01 T01641057  RH  021%=      5-min Rain = 0
KSB1 241119Z 33009KT 16/M06 A3003 RMK A01 T01641057  RH  021%=      5-min Rain = 0
KSB1 241120Z 33008KT 17/M06 A3003 RMK A01 T01651058  RH  021%=      5-min Rain = 0
KSB1 241121Z 33008KT 17/M06 A3003 RMK A01 T01651058  RH  021%=      5-min Rain = 0
KSB1 241122Z 32009KT 17/M06 A3003 RMK A01 T01651058  RH  021%=      5-min Rain = 0
KSB1 241123Z 32009KT 17/M06 A3003 RMK A01 T01651058  RH  021%=      5-min Rain = 0
KSB1 241124Z 33009KT 17/M06 A3003 RMK A01 T01661058  RH  021%=      5-min Rain = 0
KSB1 241125Z 33009KT 17/M06 A3003 RMK A01 T01651059  RH  021%=      5-min Rain = 0
KSB1 241126Z 33009KT 17/M06 A3003 RMK A01 T01661058  RH  021%=      5-min Rain = 0
KSB1 241127Z 33009KT 17/M06 A3003 RMK A01 T01661058  RH  021%=      5-min Rain = 0
KSB1 241128Z 33008KT 17/M06 A3003 RMK A01 T01671057  RH  021%=      5-min Rain = 0
KSB1 241129Z 33009KT 17/M06 A3003 RMK A01 T01671058  RH  021%=      5-min Rain = 0
KSB1 241130Z 33008KT 17/M06 A3003 RMK A01 T01661058  RH  021%=      5-min Rain = 0
KSB1 241131Z 33009KT 17/M06 A3003 RMK A01 T01661058  RH  021%=      5-min Rain = 0
KSB1 241132Z 33009KT 17/M06 A3003 RMK A01 T01661058  RH  021%=      5-min Rain = 0
KSB1 241133Z 33008KT 17/M06 A3003 RMK A01 T01651057  RH  021%=      5-min Rain = 0
KSB1 241134Z 33009KT 16/M06 A3003 RMK A01 T01641057  RH  021%=      5-min Rain = 0
KSB1 241135Z 33008KT 16/M06 A3003 RMK A01 T01631057  RH  022%=      5-min Rain = 0
KSB1 241136Z 33008KT 16/M06 A3003 RMK A01 T01631057  RH  022%=      5-min Rain = 0
KSB1 241137Z 34009KT 16/M06 A3003 RMK A01 T01631056  RH  022%=      5-min Rain = 0
KSB1 241138Z 33008KT 16/M06 A3003 RMK A01 T01631056  RH  022%=      5-min Rain = 0
KSB1 241139Z 33008KT 16/M06 A3003 RMK A01 T01621056  RH  022%=      5-min Rain = 0
KSB1 241140Z 33008KT 16/M06 A3003 RMK A01 T01621056  RH  022%=      5-min Rain = 0
KSB1 241141Z 33009KT 16/M06 A3003 RMK A01 T01611055  RH  022%=      5-min Rain = 0
KSB1 241142Z 33008KT 16/M06 A3003 RMK A01 T01601055  RH  022%=      5-min Rain = 0
KSB1 241143Z 33009KT 16/M06 A3003 RMK A01 T01611055  RH  022%=      5-min Rain = 0
KSB1 241144Z 33009KT 16/M06 A3003 RMK A01 T01611055  RH  022%=      5-min Rain = 0
KSB1 241145Z 32008KT 16/M06 A3003 RMK A01 T01631055  RH  022%=      5-min Rain = 0
KSB1 241146Z 33008KT 16/M06 A3003 RMK A01 T01641056  RH  022%=      5-min Rain = 0
KSB1 241147Z 33008KT 17/M06 A3003 RMK A01 T01651056  RH  021%=      5-min Rain = 0
KSB1 241148Z 33008KT 17/M06 A3003 RMK A01 T01661056  RH  021%=      5-min Rain = 0
KSB1 241149Z 33009KT 17/M06 A3003 RMK A01 T01661056  RH  021%=      5-min Rain = 0
KSB1 241150Z 33008KT 17/M06 A3003 RMK A01 T01661056  RH  021%=      5-min Rain = 0
KSB1 241151Z 33009KT 17/M06 A3003 RMK A01 T01661055  RH  021%=      5-min Rain = 0
KSB1 241152Z 33009KT 17/M06 A3003 RMK A01 T01661055  RH  021%=      5-min Rain = 0
KSB1 241153Z 33008KT 17/M06 A3004 RMK A01 T01661055  RH  022%=      5-min Rain = 0
KSB1 241154Z 33009KT 17/M06 A3004 RMK A01 T01661055  RH  022%=      5-min Rain = 0
KSB1 241155Z 33009KT 17/M06 A3004 RMK A01 T01661055  RH  022%=      5-min Rain = 0
KSB1 241156Z 33009KT 17/M06 A3004 RMK A01 T01651055  RH  022%=      5-min Rain = 0
KSB1 241157Z 33009KT 17/M06 A3004 RMK A01 T01651055  RH  022%=      5-min Rain = 0
KSB1 241158Z 33009KT 17/M06 A3004 RMK A01 T01651055  RH  022%=      5-min Rain = 0
KSB1 241159Z 33009KT 16/M06 A3004 RMK A01 T01641055  RH  022%=      5-min Rain = 0
KSB1 241200Z 33009KT 16/M05 A3004 RMK A01 T01631054  RH  022%=      5-min Rain = 0
KSB1 241201Z 33009KT 16/M05 A3004 RMK A01 T01631054  RH  022%=      5-min Rain = 0
KSB1 241202Z 33010KT 16/M05 A3004 RMK A01 T01621054  RH  022%=      5-min Rain = 0
KSB1 241203Z 33010KT 16/M05 A3004 RMK A01 T01621054  RH  022%=      5-min Rain = 0
KSB1 241204Z 33010KT 16/M05 A3004 RMK A01 T01621054  RH  022%=      5-min Rain = 0
KSB1 241205Z 33010KT 16/M05 A3004 RMK A01 T01631054  RH  022%=      5-min Rain = 0
KSB1 241206Z 33010KT 16/M05 A3004 RMK A01 T01631054  RH  022%=      5-min Rain = 0
KSB1 241207Z 33009KT 16/M05 A3004 RMK A01 T01631054  RH  022%=      5-min Rain = 0
KSB1 241208Z 33009KT 16/M05 A3004 RMK A01 T01621054  RH  022%=      5-min Rain = 0
KSB1 241209Z 33009KT 16/M05 A3004 RMK A01 T01621054  RH  022%=      5-min Rain = 0
KSB1 241210Z 33009KT 16/M05 A3004 RMK A01 T01621054  RH  022%=      5-min Rain = 0
KSB1 241211Z 33009KT 16/M05 A3004 RMK A01 T01621054  RH  022%=      5-min Rain = 0
KSB1 241212Z 33009KT 16/M05 A3004 RMK A01 T01621054  RH  022%=      5-min Rain = 0
KSB1 241213Z 33009KT 16/M05 A3004 RMK A01 T01621054  RH  022%=      5-min Rain = 0
KSB1 241214Z 33009KT 16/M05 A3004 RMK A01 T01611054  RH  022%=      5-min Rain = 0
KSB1 241215Z 33008KT 16/M05 A3004 RMK A01 T01621054  RH  022%=      5-min Rain = 0
KSB1 241216Z 33007KT 16/M05 A3004 RMK A01 T01611053  RH  022%=      5-min Rain = 0
KSB1 241217Z 33008KT 16/M05 A3004 RMK A01 T01611053  RH  023%=      5-min Rain = 0
KSB1 241218Z 33007KT 16/M05 A3004 RMK A01 T01601053  RH  023%=      5-min Rain = 0
KSB1 241219Z 33008KT 16/M05 A3004 RMK A01 T01591053  RH  023%=      5-min Rain = 0
KSB1 241220Z 33008KT 16/M05 A3004 RMK A01 T01581053  RH  023%=      5-min Rain = 0
KSB1 241221Z 33008KT 16/M05 A3004 RMK A01 T01581052  RH  023%=      5-min Rain = 0
KSB1 241222Z 33009KT 16/M05 A3004 RMK A01 T01581052  RH  023%=      5-min Rain = 0
KSB1 241223Z 33008KT 16/M05 A3004 RMK A01 T01591053  RH  023%=      5-min Rain = 0
KSB1 241224Z 33007KT 16/M05 A3004 RMK A01 T01601053  RH  023%=      5-min Rain = 0
KSB1 241225Z 33007KT 16/M05 A3004 RMK A01 T01601053  RH  023%=      5-min Rain = 0
KSB1 241226Z 33007KT 16/M05 A3004 RMK A01 T01611053  RH  023%=      5-min Rain = 0
KSB1 241227Z 33007KT 16/M05 A3004 RMK A01 T01611053  RH  022%=      5-min Rain = 0
KSB1 241228Z 33008KT 16/M05 A3004 RMK A01 T01621053  RH  022%=      5-min Rain = 0
KSB1 241229Z 33008KT 16/M05 A3004 RMK A01 T01621052  RH  023%=      5-min Rain = 0
KSB1 241230Z 33007KT 16/M05 A3004 RMK A01 T01621052  RH  022%=      5-min Rain = 0
KSB1 241231Z 33007KT 16/M05 A3004 RMK A01 T01631053  RH  022%=      5-min Rain = 0
KSB1 241232Z 33007KT 16/M05 A3004 RMK A01 T01641052  RH  022%=      5-min Rain = 0
KSB1 241233Z 33007KT 16/M05 A3004 RMK A01 T01641052  RH  022%=      5-min Rain = 0
KSB1 241234Z 33008KT 16/M05 A3004 RMK A01 T01641052  RH  022%=      5-min Rain = 0
KSB1 241235Z 33007KT 16/M05 A3004 RMK A01 T01641052  RH  022%=      5-min Rain = 0
KSB1 241236Z 33007KT 17/M05 A3004 RMK A01 T01651052  RH  022%=      5-min Rain = 0
KSB1 241237Z 33007KT 17/M05 A3004 RMK A01 T01651051  RH  022%=      5-min Rain = 0
KSB1 241238Z 33007KT 17/M05 A3004 RMK A01 T01661052  RH  022%=      5-min Rain = 0
KSB1 241239Z 33007KT 17/M05 A3004 RMK A01 T01671051  RH  022%=      5-min Rain = 0
KSB1 241240Z 33007KT 17/M05 A3004 RMK A01 T01671050  RH  022%=      5-min Rain = 0
KSB1 241241Z 33007KT 17/M05 A3004 RMK A01 T01671050  RH  022%=      5-min Rain = 0
KSB1 241242Z 33007KT 17/M05 A3004 RMK A01 T01671051  RH  022%=      5-min Rain = 0
KSB1 241243Z 33007KT 17/M05 A3004 RMK A01 T01681051  RH  022%=      5-min Rain = 0
KSB1 241244Z 33007KT 17/M05 A3005 RMK A01 T01691050  RH  022%=      5-min Rain = 0
KSB1 241245Z 33007KT 17/M05 A3005 RMK A01 T01701050  RH  022%=      5-min Rain = 0
KSB1 241246Z 33007KT 17/M05 A3005 RMK A01 T01701051  RH  022%=      5-min Rain = 0
KSB1 241247Z 33007KT 17/M05 A3005 RMK A01 T01711050  RH  022%=      5-min Rain = 0
KSB1 241248Z 33007KT 17/M05 A3005 RMK A01 T01711051  RH  022%=      5-min Rain = 0
KSB1 241249Z 33007KT 17/M05 A3005 RMK A01 T01721050  RH  022%=      5-min Rain = 0
KSB1 241250Z 33007KT 17/M05 A3005 RMK A01 T01731050  RH  022%=      5-min Rain = 0
KSB1 241251Z 32007KT 17/M05 A3005 RMK A01 T01741050  RH  021%=      5-min Rain = 0
KSB1 241252Z 33007KT 18/M05 A3005 RMK A01 T01761050  RH  021%=      5-min Rain = 0
KSB1 241253Z 32007KT 18/M05 A3005 RMK A01 T01771050  RH  021%=      5-min Rain = 0
KSB1 241254Z 32007KT 18/M05 A3005 RMK A01 T01781051  RH  021%=      5-min Rain = 0
KSB1 241255Z 32005KT 18/M05 A3005 RMK A01 T01791050  RH  021%=      5-min Rain = 0
KSB1 241256Z 32005KT 18/M05 A3005 RMK A01 T01791049  RH  021%=      5-min Rain = 0
KSB1 241257Z 33006KT 18/M05 A3005 RMK A01 T01801049  RH  021%=      5-min Rain = 0
KSB1 241258Z 32006KT 18/M05 A3005 RMK A01 T01811048  RH  021%=      5-min Rain = 0
KSB1 241259Z 32005KT 18/M05 A3005 RMK A01 T01811049  RH  021%=      5-min Rain = 0
KSB1 241300Z 32005KT 18/M05 A3005 RMK A01 T01821049  RH  020%=      5-min Rain = 0
KSB1 241301Z 33005KT 18/M05 A3005 RMK A01 T01831049  RH  020%=      5-min Rain = 0
KSB1 241302Z 34005KT 18/M05 A3005 RMK A01 T01831048  RH  020%=      5-min Rain = 0
KSB1 241303Z 34005KT 18/M05 A3005 RMK A01 T01841048  RH  020%=      5-min Rain = 0
KSB1 241304Z 33004KT 18/M05 A3005 RMK A01 T01841048  RH  020%=      5-min Rain = 0
KSB1 241305Z 34004KT 19/M05 A3005 RMK A01 T01851046  RH  020%=      5-min Rain = 0
KSB1 241306Z 34004KT 19/M05 A3005 RMK A01 T01851046  RH  020%=      5-min Rain = 0
KSB1 241307Z 34004KT 19/M05 A3005 RMK A01 T01861047  RH  020%=      5-min Rain = 0
KSB1 241308Z 34005KT 19/M05 A3005 RMK A01 T01861048  RH  020%=      5-min Rain = 0
KSB1 241309Z 34004KT 19/M05 A3005 RMK A01 T01861048  RH  020%=      5-min Rain = 0
KSB1 241310Z 34003KT 19/M05 A3006 RMK A01 T01861047  RH  020%=      5-min Rain = 0
KSB1 241311Z 34004KT 19/M05 A3006 RMK A01 T01871045  RH  020%=      5-min Rain = 0
KSB1 241312Z 34004KT 19/M05 A3006 RMK A01 T01871045  RH  020%=      5-min Rain = 0
KSB1 241313Z 34004KT 19/M04 A3006 RMK A01 T01871043  RH  021%=      5-min Rain = 0
KSB1 241314Z 34004KT 19/M04 A3006 RMK A01 T01871044  RH  020%=      5-min Rain = 0
KSB1 241315Z 35003KT 19/M05 A3006 RMK A01 T01881045  RH  020%=      5-min Rain = 0
KSB1 241316Z 01002KT 19/M04 A3006 RMK A01 T01881043  RH  021%=      5-min Rain = 0
KSB1 241317Z 03003KT 19/M04 A3006 RMK A01 T01881040  RH  021%=      5-min Rain = 0
KSB1 241318Z 04003KT 19/M04 A3006 RMK A01 T01881040  RH  021%=      5-min Rain = 0
KSB1 241319Z 09004KT 19/M03 A3006 RMK A01 T01881034  RH  022%=      5-min Rain = 0
KSB1 241320Z 09005KT 18/M03 A3006 RMK A01 T01841028  RH  024%=      5-min Rain = 0
KSB1 241321Z 10005KT 18/M03 A3006 RMK A01 T01771029  RH  024%=      5-min Rain = 0
KSB1 241322Z 09005KT 17/M03 A3006 RMK A01 T01721025  RH  026%=      5-min Rain = 0
KSB1 241323Z 08005KT 17/M03 A3006 RMK A01 T01691025  RH  026%=      5-min Rain = 0
KSB1 241324Z 08004KT 17/M03 A3006 RMK A01 T01661029  RH  026%=      5-min Rain = 0
KSB1 241325Z 07004KT 16/M03 A3006 RMK A01 T01631033  RH  026%=      5-min Rain = 0
KSB1 241326Z 06003KT 16/M03 A3006 RMK A01 T01601032  RH  027%=      5-min Rain = 0
KSB1 241327Z 06003KT 16/M03 A3006 RMK A01 T01591033  RH  027%=      5-min Rain = 0
KSB1 241328Z 05003KT 16/M03 A3006 RMK A01 T01581031  RH  027%=      5-min Rain = 0
KSB1 241329Z 04003KT 16/M03 A3006 RMK A01 T01571031  RH  027%=      5-min Rain = 0
KSB1 241330Z 05002KT 16/M03 A3006 RMK A01 T01571031  RH  027%=      5-min Rain = 0
KSB1 241331Z 03002KT 16/M03 A3006 RMK A01 T01571030  RH  028%=      5-min Rain = 0
KSB1 241332Z 02002KT 16/M03 A3006 RMK A01 T01581029  RH  028%=      5-min Rain = 0
KSB1 241333Z 02002KT 16/M03 A3006 RMK A01 T01591027  RH  028%=      5-min Rain = 0
KSB1 241334Z 03002KT 16/M03 A3006 RMK A01 T01601026  RH  028%=      5-min Rain = 0
KSB1 241335Z 03002KT 16/M03 A3006 RMK A01 T01611027  RH  027%=      5-min Rain = 0
KSB1 241336Z 03002KT 16/M03 A3006 RMK A01 T01611027  RH  027%=      5-min Rain = 0
KSB1 241337Z 04002KT 16/M03 A3006 RMK A01 T01621027  RH  027%=      5-min Rain = 0
KSB1 241338Z 04002KT 16/M03 A3006 RMK A01 T01631028  RH  027%=      5-min Rain = 0
KSB1 241339Z 04002KT 16/M03 A3006 RMK A01 T01641027  RH  027%=      5-min Rain = 0
KSB1 241340Z 01002KT 17/M03 A3006 RMK A01 T01651027  RH  027%=      5-min Rain = 0
KSB1 241341Z 01002KT 17/M03 A3006 RMK A01 T01661026  RH  027%=      5-min Rain = 0
KSB1 241342Z 01002KT 17/M03 A3006 RMK A01 T01681026  RH  026%=      5-min Rain = 0
KSB1 241343Z 01001KT 17/M03 A3006 RMK A01 T01701025  RH  026%=      5-min Rain = 0
KSB1 241344Z 01002KT 17/M02 A3006 RMK A01 T01711024  RH  026%=      5-min Rain = 0
KSB1 241345Z 01002KT 17/M03 A3006 RMK A01 T01731027  RH  025%=      5-min Rain = 0
KSB1 241346Z 02001KT 17/M03 A3006 RMK A01 T01741026  RH  026%=      5-min Rain = 0
KSB1 241347Z 35002KT 18/M02 A3006 RMK A01 T01751024  RH  026%=      5-min Rain = 0
KSB1 241348Z 33002KT 18/M03 A3007 RMK A01 T01761026  RH  025%=      5-min Rain = 0
KSB1 241349Z 33001KT 18/M02 A3007 RMK A01 T01761024  RH  025%=      5-min Rain = 0
KSB1 241350Z 33002KT 18/M02 A3006 RMK A01 T01771023  RH  025%=      5-min Rain = 0
KSB1 241351Z 31003KT 18/M03 A3006 RMK A01 T01791025  RH  025%=      5-min Rain = 0
KSB1 241352Z 32003KT 18/M03 A3006 RMK A01 T01801026  RH  024%=      5-min Rain = 0
KSB1 241353Z 32003KT 18/M03 A3006 RMK A01 T01821026  RH  024%=      5-min Rain = 0
KSB1 241354Z 31002KT 18/M02 A3006 RMK A01 T01841024  RH  024%=      5-min Rain = 0
KSB1 241355Z 31003KT 19/M03 A3007 RMK A01 T01871029  RH  023%=      5-min Rain = 0
KSB1 241356Z 31003KT 19/M03 A3007 RMK A01 T01881030  RH  023%=      5-min Rain = 0
KSB1 241357Z 33003KT 19/M03 A3007 RMK A01 T01901030  RH  022%=      5-min Rain = 0
KSB1 241358Z 33003KT 19/M04 A3007 RMK A01 T01911035  RH  021%=      5-min Rain = 0
KSB1 241359Z 34003KT 19/M03 A3007 RMK A01 T01931031  RH  022%=      5-min Rain = 0
KSB1 241400Z 34003KT 20/M04 A3007 RMK A01 T01951039  RH  020%=      5-min Rain = 0
KSB1 241401Z 34003KT 20/M04 A3007 RMK A01 T01971041  RH  020%=      5-min Rain = 0
KSB1 241402Z 32003KT 20/M04 A3007 RMK A01 T01981037  RH  020%=      5-min Rain = 0
KSB1 241403Z 32003KT 20/M04 A3007 RMK A01 T01991037  RH  020%=      5-min Rain = 0
KSB1 241404Z 32002KT 20/M03 A3007 RMK A01 T02001034  RH  020%=      5-min Rain = 0
KSB1 241405Z 34002KT 20/M03 A3007 RMK A01 T02011029  RH  021%=      5-min Rain = 0
KSB1 241406Z 33004KT 20/M04 A3007 RMK A01 T02021038  RH  020%=      5-min Rain = 0
KSB1 241407Z 33003KT 20/M04 A3007 RMK A01 T02031038  RH  019%=      5-min Rain = 0
KSB1 241408Z 35004KT 20/M04 A3007 RMK A01 T02041038  RH  019%=      5-min Rain = 0
KSB1 241409Z 35004KT 21/M04 A3007 RMK A01 T02051041  RH  019%=      5-min Rain = 0
KSB1 241410Z 35005KT 21/M04 A3007 RMK A01 T02051042  RH  018%=      5-min Rain = 0
KSB1 241411Z 35004KT 21/M04 A3007 RMK A01 T02061042  RH  019%=      5-min Rain = 0
KSB1 241412Z 36004KT 21/M04 A3007 RMK A01 T02071040  RH  019%=      5-min Rain = 0
KSB1 241413Z 36003KT 21/M04 A3007 RMK A01 T02071041  RH  018%=      5-min Rain = 0
KSB1 241414Z 36003KT 21/M04 A3007 RMK A01 T02091037  RH  019%=      5-min Rain = 0
KSB1 241415Z 36003KT 21/M04 A3007 RMK A01 T02091039  RH  019%=      5-min Rain = 0
KSB1 241416Z 36003KT 21/M04 A3007 RMK A01 T02091035  RH  019%=      5-min Rain = 0
KSB1 241417Z 35003KT 21/M04 A3007 RMK A01 T02101036  RH  019%=      5-min Rain = 0
KSB1 241418Z 34004KT 21/M04 A3007 RMK A01 T02111038  RH  018%=      5-min Rain = 0
KSB1 241419Z 34004KT 21/M04 A3007 RMK A01 T02121037  RH  019%=      5-min Rain = 0
KSB1 241420Z 35004KT 21/M04 A3007 RMK A01 T02121037  RH  018%=      5-min Rain = 0
KSB1 241421Z 35003KT 21/M04 A3007 RMK A01 T02121039  RH  018%=      5-min Rain = 0
KSB1 241422Z 34003KT 21/M04 A3007 RMK A01 T02121036  RH  019%=      5-min Rain = 0
KSB1 241423Z 34003KT 21/M04 A3007 RMK A01 T02131035  RH  019%=      5-min Rain = 0
KSB1 241424Z 35004KT 21/M04 A3007 RMK A01 T02141036  RH  018%=      5-min Rain = 0
KSB1 241425Z 35004KT 21/M04 A3007 RMK A01 T02141036  RH  018%=      5-min Rain = 0
KSB1 241426Z 34003KT 22/M04 A3007 RMK A01 T02151036  RH  018%=      5-min Rain = 0
KSB1 241427Z 35004KT 22/M03 A3007 RMK A01 T02151034  RH  019%=      5-min Rain = 0
KSB1 241428Z 01004KT 22/M04 A3007 RMK A01 T02161035  RH  018%=      5-min Rain = 0
KSB1 241429Z 00003KT 22/M04 A3007 RMK A01 T02161036  RH  018%=      5-min Rain = 0
KSB1 241430Z 34004KT 22/M03 A3007 RMK A01 T02171033  RH  018%=      5-min Rain = 0
KSB1 241431Z 34003KT 22/M03 A3007 RMK A01 T02181033  RH  018%=      5-min Rain = 0
KSB1 241432Z 35003KT 22/M03 A3007 RMK A01 T02181034  RH  018%=      5-min Rain = 0
KSB1 241433Z 36003KT 22/M03 A3007 RMK A01 T02181033  RH  018%=      5-min Rain = 0
KSB1 241434Z 00004KT 22/M03 A3007 RMK A01 T02181030  RH  019%=      5-min Rain = 0
KSB1 241435Z 01003KT 22/M03 A3007 RMK A01 T02181033  RH  018%=      5-min Rain = 0
KSB1 241436Z 36005KT 22/M04 A3007 RMK A01 T02191036  RH  018%=      5-min Rain = 0
KSB1 241437Z 35003KT 22/M04 A3007 RMK A01 T02201041  RH  017%=      5-min Rain = 0
KSB1 241438Z 35003KT 22/M04 A3007 RMK A01 T02201040  RH  017%=      5-min Rain = 0
KSB1 241439Z 02003KT 22/M04 A3007 RMK A01 T02211036  RH  018%=      5-min Rain = 0
KSB1 241440Z 03004KT 22/M03 A3007 RMK A01 T02231031  RH  018%=      5-min Rain = 0
KSB1 241441Z 00004KT 22/M03 A3007 RMK A01 T02241031  RH  018%=      5-min Rain = 0
KSB1 241442Z 35004KT 22/M04 A3007 RMK A01 T02241035  RH  017%=      5-min Rain = 0
KSB1 241443Z 02003KT 22/M03 A3007 RMK A01 T02241033  RH  018%=      5-min Rain = 0
KSB1 241444Z 03004KT 23/M03 A3007 RMK A01 T02261028  RH  018%=      5-min Rain = 0
KSB1 241445Z 05004KT 23/M03 A3007 RMK A01 T02271033  RH  017%=      5-min Rain = 0
KSB1 241446Z 04004KT 23/M03 A3007 RMK A01 T02271032  RH  018%=      5-min Rain = 0
KSB1 241447Z 04003KT 23/M03 A3007 RMK A01 T02271031  RH  018%=      5-min Rain = 0
KSB1 241448Z 03005KT 23/M03 A3007 RMK A01 T02271031  RH  018%=      5-min Rain = 0
KSB1 241449Z 04005KT 23/M04 A3007 RMK A01 T02271035  RH  017%=      5-min Rain = 0
KSB1 241450Z 04005KT 23/M04 A3008 RMK A01 T02271038  RH  017%=      5-min Rain = 0
KSB1 241451Z 02004KT 23/M04 A3008 RMK A01 T02271038  RH  017%=      5-min Rain = 0
KSB1 241452Z 03004KT 23/M04 A3008 RMK A01 T02271035  RH  017%=      5-min Rain = 0
KSB1 241453Z 03003KT 23/M03 A3008 RMK A01 T02281034  RH  017%=      5-min Rain = 0
KSB1 241454Z 00002KT 23/M03 A3008 RMK A01 T02281033  RH  017%=      5-min Rain = 0
KSB1 241455Z 01002KT 23/M04 A3008 RMK A01 T02281037  RH  017%=      5-min Rain = 0
KSB1 241456Z 01003KT 23/M03 A3008 RMK A01 T02291034  RH  017%=      5-min Rain = 0
KSB1 241457Z 01001KT 23/M04 A3008 RMK A01 T02301037  RH  017%=      5-min Rain = 0
KSB1 241458Z 04002KT 23/M04 A3008 RMK A01 T02301036  RH  017%=      5-min Rain = 0
KSB1 241459Z 05003KT 23/M04 A3008 RMK A01 T02311035  RH  017%=      5-min Rain = 0
KSB1 241500Z 04005KT 23/M04 A3008 RMK A01 T02341039  RH  016%=      5-min Rain = 0
KSB1 241501Z 02005KT 24/M05 A3008 RMK A01 T02361047  RH  015%=      5-min Rain = 0
KSB1 241502Z 03006KT 24/M05 A3008 RMK A01 T02361049  RH  015%=      5-min Rain = 0
KSB1 241503Z 04006KT 24/M05 A3008 RMK A01 T02361053  RH  014%=      5-min Rain = 0
KSB1 241504Z 06006KT 24/M05 A3008 RMK A01 T02361050  RH  015%=      5-min Rain = 0
KSB1 241505Z 06008KT 24/M04 A3008 RMK A01 T02351040  RH  016%=      5-min Rain = 0
KSB1 241506Z 05007KT 23/M05 A3008 RMK A01 T02341045  RH  015%=      5-min Rain = 0
KSB1 241507Z 05006KT 23/M05 A3008 RMK A01 T02321049  RH  015%=      5-min Rain = 0
KSB1 241508Z 05008KT 23/M05 A3008 RMK A01 T02321049  RH  015%=      5-min Rain = 0
KSB1 241509Z 04006KT 23/M05 A3008 RMK A01 T02321053  RH  015%=      5-min Rain = 0
KSB1 241510Z 05006KT 23/M05 A3008 RMK A01 T02321050  RH  015%=      5-min Rain = 0
KSB1 241511Z 04007KT 23/M05 A3008 RMK A01 T02341046  RH  015%=      5-min Rain = 0
KSB1 241512Z 06006KT 24/M05 A3008 RMK A01 T02351046  RH  015%=      5-min Rain = 0
KSB1 241513Z 06007KT 24/M04 A3008 RMK A01 T02361044  RH  015%=      5-min Rain = 0
KSB1 241514Z 06006KT 24/M05 A3008 RMK A01 T02361046  RH  015%=      5-min Rain = 0
KSB1 241515Z 07007KT 23/M05 A3008 RMK A01 T02341045  RH  015%=      5-min Rain = 0
KSB1 241516Z 06006KT 23/M05 A3008 RMK A01 T02331046  RH  015%=      5-min Rain = 0
KSB1 241517Z 06008KT 23/M05 A3008 RMK A01 T02331046  RH  015%=      5-min Rain = 0
KSB1 241518Z 05007KT 24/M04 A3008 RMK A01 T02371044  RH  015%=      5-min Rain = 0
KSB1 241519Z 06007KT 24/M05 A3008 RMK A01 T02391047  RH  015%=      5-min Rain = 0
KSB1 241520Z 07004KT 24/M05 A3008 RMK A01 T02371049  RH  015%=      5-min Rain = 0
KSB1 241521Z 07007KT 24/M05 A3008 RMK A01 T02351048  RH  015%=      5-min Rain = 0
KSB1 241522Z 06007KT 24/M05 A3008 RMK A01 T02361051  RH  014%=      5-min Rain = 0
KSB1 241523Z 06008KT 24/M05 A3008 RMK A01 T02371045  RH  015%=      5-min Rain = 0
KSB1 241524Z 05006KT 24/M04 A3008 RMK A01 T02371044  RH  015%=      5-min Rain = 0
KSB1 241525Z 06005KT 24/M04 A3008 RMK A01 T02371040  RH  016%=      5-min Rain = 0
KSB1 241526Z 07007KT 24/M04 A3008 RMK A01 T02391040  RH  015%=      5-min Rain = 0
KSB1 241527Z 06006KT 24/M04 A3008 RMK A01 T02401038  RH  015%=      5-min Rain = 0
KSB1 241528Z 06005KT 24/M04 A3008 RMK A01 T02411039  RH  015%=      5-min Rain = 0
KSB1 241529Z 06006KT 24/M04 A3008 RMK A01 T02411043  RH  015%=      5-min Rain = 0
KSB1 241530Z 04006KT 24/M04 A3008 RMK A01 T02421044  RH  015%=      5-min Rain = 0
KSB1 241531Z 04007KT 24/M05 A3008 RMK A01 T02421049  RH  014%=      5-min Rain = 0
KSB1 241532Z 03005KT 24/M05 A3008 RMK A01 T02411049  RH  014%=      5-min Rain = 0
KSB1 241533Z 03005KT 24/M05 A3008 RMK A01 T02411049  RH  014%=      5-min Rain = 0
KSB1 241534Z 04007KT 24/M05 A3008 RMK A01 T02411049  RH  014%=      5-min Rain = 0
KSB1 241535Z 06008KT 24/M05 A3008 RMK A01 T02411047  RH  014%=      5-min Rain = 0
KSB1 241536Z 05008KT 24/M04 A3008 RMK A01 T02421043  RH  015%=      5-min Rain = 0
KSB1 241537Z 07006KT 24/M05 A3008 RMK A01 T02431048  RH  014%=      5-min Rain = 0
KSB1 241538Z 06007KT 24/M04 A3008 RMK A01 T02431042  RH  015%=      5-min Rain = 0
KSB1 241539Z 02007KT 25/M04 A3008 RMK A01 T02471041  RH  015%=      5-min Rain = 0
KSB1 241540Z 02008KT 25/M04 A3008 RMK A01 T02481043  RH  014%=      5-min Rain = 0
KSB1 241541Z 01005KT 25/M04 A3008 RMK A01 T02451042  RH  015%=      5-min Rain = 0
KSB1 241542Z 02004KT 24/M04 A3008 RMK A01 T02431043  RH  015%=      5-min Rain = 0
KSB1 241543Z 03004KT 24/M04 A3008 RMK A01 T02411043  RH  015%=      5-min Rain = 0
KSB1 241544Z 04009KT 24/M04 A3008 RMK A01 T02421042  RH  015%=      5-min Rain = 0
KSB1 241545Z 04007KT 24/M04 A3008 RMK A01 T02411041  RH  015%=      5-min Rain = 0
KSB1 241546Z 04007KT 24/M04 A3008 RMK A01 T02401039  RH  015%=      5-min Rain = 0
KSB1 241547Z 05007KT 24/M04 A3008 RMK A01 T02441038  RH  015%=      5-min Rain = 0
KSB1 241548Z 04008KT 25/M04 A3008 RMK A01 T02451036  RH  015%=      5-min Rain = 0
KSB1 241549Z 05008KT 24/M04 A3008 RMK A01 T02441037  RH  015%=      5-min Rain = 0
KSB1 241550Z 05006KT 24/M04 A3008 RMK A01 T02421036  RH  015%=      5-min Rain = 0
KSB1 241551Z 06005KT 24/M04 A3008 RMK A01 T02421036  RH  016%=      5-min Rain = 0
KSB1 241552Z 06004KT 24/M04 A3008 RMK A01 T02421036  RH  016%=      5-min Rain = 0
KSB1 241553Z 06006KT 24/M04 A3008 RMK A01 T02411035  RH  016%=      5-min Rain = 0
KSB1 241554Z 06007KT 24/M04 A3008 RMK A01 T02431037  RH  015%=      5-min Rain = 0
KSB1 241555Z 03009KT 24/M04 A3008 RMK A01 T02441037  RH  015%=      5-min Rain = 0
KSB1 241556Z 03010KT 25/M04 A3008 RMK A01 T02451037  RH  015%=      5-min Rain = 0
KSB1 241557Z 03008KT 24/M04 A3008 RMK A01 T02431036  RH  015%=      5-min Rain = 0
KSB1 241558Z 03008KT 24/M03 A3008 RMK A01 T02421034  RH  016%=      5-min Rain = 0
KSB1 241559Z 02006KT 24/M03 A3008 RMK A01 T02431034  RH  016%=      5-min Rain = 0
KSB1 241600Z 04006KT 24/M03 A3008 RMK A01 T02431032  RH  016%=      5-min Rain = 0
KSB1 241601Z 04006KT 24/M03 A3008 RMK A01 T02441032  RH  016%=      5-min Rain = 0
KSB1 241602Z 04007KT 24/M03 A3008 RMK A01 T02441031  RH  016%=      5-min Rain = 0
KSB1 241603Z 05006KT 25/M03 A3008 RMK A01 T02471028  RH  016%=      5-min Rain = 0
KSB1 241604Z 06004KT 25/M03 A3008 RMK A01 T02521028  RH  015%=      5-min Rain = 0
KSB1 241605Z 08004KT 25/M03 A3008 RMK A01 T02531031  RH  015%=      5-min Rain = 0
KSB1 241606Z 10004KT 25/M03 A3008 RMK A01 T02511031  RH  015%=      5-min Rain = 0
KSB1 241607Z 04005KT 25/M03 A3008 RMK A01 T02511030  RH  015%=      5-min Rain = 0
KSB1 241608Z 02008KT 25/M03 A3008 RMK A01 T02511033  RH  015%=      5-min Rain = 0
KSB1 241609Z 01006KT 25/M04 A3008 RMK A01 T02491035  RH  015%=      5-min Rain = 0
KSB1 241610Z 03003KT 25/M04 A3008 RMK A01 T02461035  RH  015%=      5-min Rain = 0
KSB1 241611Z 00004KT 25/M03 A3008 RMK A01 T02451034  RH  015%=      5-min Rain = 0
KSB1 241612Z 34002KT 25/M03 A3008 RMK A01 T02461034  RH  015%=      5-min Rain = 0
KSB1 241613Z 34002KT 25/M04 A3008 RMK A01 T02461036  RH  015%=      5-min Rain = 0
KSB1 241614Z 04005KT 25/M03 A3008 RMK A01 T02461033  RH  016%=      5-min Rain = 0
KSB1 241615Z 06007KT 25/M03 A3008 RMK A01 T02471032  RH  016%=      5-min Rain = 0
KSB1 241616Z 07006KT 25/M03 A3008 RMK A01 T02471031  RH  016%=      5-min Rain = 0
KSB1 241617Z 08004KT 25/M03 A3008 RMK A01 T02491030  RH  016%=      5-min Rain = 0
KSB1 241618Z 07005KT 25/M03 A3008 RMK A01 T02501029  RH  016%=      5-min Rain = 0
KSB1 241619Z 06005KT 25/M03 A3008 RMK A01 T02511031  RH  015%=      5-min Rain = 0
KSB1 241620Z 07003KT 25/M03 A3008 RMK A01 T02491031  RH  015%=      5-min Rain = 0
KSB1 241621Z 07004KT 25/M03 A3008 RMK A01 T02491030  RH  016%=      5-min Rain = 0
KSB1 241622Z 10003KT 25/M03 A3008 RMK A01 T02491031  RH  015%=      5-min Rain = 0
KSB1 241623Z 10003KT 25/M03 A3008 RMK A01 T02491032  RH  015%=      5-min Rain = 0
KSB1 241624Z 09002KT 25/M03 A3008 RMK A01 T02491033  RH  015%=      5-min Rain = 0
KSB1 241625Z 12003KT 25/M03 A3008 RMK A01 T02491030  RH  016%=      5-min Rain = 0
KSB1 241626Z 08004KT 25/M03 A3008 RMK A01 T02511030  RH  015%=      5-min Rain = 0
KSB1 241627Z 00005KT 25/M03 A3008 RMK A01 T02521029  RH  015%=      5-min Rain = 0
KSB1 241628Z 36006KT 25/M03 A3008 RMK A01 T02521029  RH  015%=      5-min Rain = 0
KSB1 241629Z 36007KT 25/M03 A3008 RMK A01 T02521030  RH  015%=      5-min Rain = 0
KSB1 241630Z 34005KT 25/M03 A3008 RMK A01 T02531031  RH  015%=      5-min Rain = 0
KSB1 241631Z 35004KT 25/M03 A3008 RMK A01 T02521032  RH  015%=      5-min Rain = 0
KSB1 241632Z 03007KT 25/M03 A3008 RMK A01 T02521029  RH  015%=      5-min Rain = 0
KSB1 241633Z 01005KT 25/M03 A3008 RMK A01 T02521030  RH  015%=      5-min Rain = 0
KSB1 241634Z 33003KT 25/M03 A3008 RMK A01 T02511031  RH  015%=      5-min Rain = 0
KSB1 241635Z 32003KT 25/M03 A3008 RMK A01 T02501032  RH  015%=      5-min Rain = 0
KSB1 241636Z 30003KT 25/M03 A3008 RMK A01 T02501031  RH  015%=      5-min Rain = 0
KSB1 241637Z 32002KT 25/M03 A3008 RMK A01 T02491032  RH  015%=      5-min Rain = 0
KSB1 241638Z 32001KT 25/M03 A3008 RMK A01 T02491033  RH  015%=      5-min Rain = 0
KSB1 241639Z 00003KT 25/M03 A3007 RMK A01 T02511031  RH  015%=      5-min Rain = 0
KSB1 241640Z 34002KT 25/M03 A3007 RMK A01 T02511032  RH  015%=      5-min Rain = 0
KSB1 241641Z 35002KT 25/M03 A3007 RMK A01 T02511031  RH  015%=      5-min Rain = 0
KSB1 241642Z 01002KT 25/M03 A3007 RMK A01 T02511032  RH  015%=      5-min Rain = 0
KSB1 241643Z 03003KT 25/M03 A3008 RMK A01 T02521027  RH  016%=      5-min Rain = 0
KSB1 241644Z 01004KT 25/M03 A3008 RMK A01 T02541031  RH  015%=      5-min Rain = 0
KSB1 241645Z 32001KT 25/M03 A3008 RMK A01 T02531033  RH  015%=      5-min Rain = 0
KSB1 241646Z 17000KT 25/M03 A3008 RMK A01 T02521034  RH  015%=      5-min Rain = 0
KSB1 241647Z 24001KT 25/M03 A3008 RMK A01 T02521033  RH  015%=      5-min Rain = 0
KSB1 241648Z 28001KT 25/M03 A3008 RMK A01 T02531033  RH  015%=      5-min Rain = 0
KSB1 241649Z 27001KT 25/M03 A3008 RMK A01 T02531034  RH  015%=      5-min Rain = 0
KSB1 241650Z 20001KT 25/M03 A3008 RMK A01 T02541031  RH  015%=      5-min Rain = 0
KSB1 241651Z 24003KT 26/M03 A3008 RMK A01 T02551031  RH  015%=      5-min Rain = 0
KSB1 241652Z 24003KT 26/M03 A3008 RMK A01 T02551031  RH  015%=      5-min Rain = 0
KSB1 241653Z 20002KT 26/M03 A3008 RMK A01 T02561031  RH  015%=      5-min Rain = 0
KSB1 241654Z 22003KT 26/M03 A3008 RMK A01 T02561031  RH  015%=      5-min Rain = 0
KSB1 241655Z 22004KT 26/M03 A3007 RMK A01 T02571029  RH  015%=      5-min Rain = 0
KSB1 241656Z 24003KT 26/M03 A3008 RMK A01 T02581029  RH  015%=      5-min Rain = 0
KSB1 241657Z 22002KT 26/M03 A3007 RMK A01 T02591028  RH  015%=      5-min Rain = 0
KSB1 241658Z 10001KT 26/M03 A3007 RMK A01 T02601030  RH  015%=      5-min Rain = 0
KSB1 241659Z 17001KT 26/M03 A3007 RMK A01 T02601031  RH  014%=      5-min Rain = 0
KSB1 241700Z 03001KT 26/M03 A3007 RMK A01 T02601031  RH  014%=      5-min Rain = 0
KSB1 241701Z 01003KT 26/M03 A3007 RMK A01 T02611029  RH  015%=      5-min Rain = 0
KSB1 241702Z 01004KT 26/M03 A3007 RMK A01 T02621028  RH  015%=      5-min Rain = 0
KSB1 241703Z 35004KT 26/M03 A3007 RMK A01 T02621027  RH  015%=      5-min Rain = 0
KSB1 241704Z 33003KT 26/M03 A3007 RMK A01 T02601030  RH  015%=      5-min Rain = 0
KSB1 241705Z 34000KT 26/M03 A3007 RMK A01 T02571031  RH  015%=      5-min Rain = 0
KSB1 241706Z 01002KT 26/M03 A3007 RMK A01 T02551029  RH  015%=      5-min Rain = 0
KSB1 241707Z 02003KT 26/M02 A3007 RMK A01 T02591024  RH  015%=      5-min Rain = 0
KSB1 241708Z 04002KT 26/M03 A3007 RMK A01 T02621027  RH  015%=      5-min Rain = 0
KSB1 241709Z 07001KT 26/M03 A3007 RMK A01 T02631026  RH  015%=      5-min Rain = 0
KSB1 241710Z 07005KT 26/M03 A3007 RMK A01 T02631027  RH  015%=      5-min Rain = 0
KSB1 241711Z 10004KT 26/M03 A3007 RMK A01 T02631027  RH  015%=      5-min Rain = 0
KSB1 241712Z 11005KT 26/M03 A3007 RMK A01 T02631028  RH  015%=      5-min Rain = 0
KSB1 241713Z 10007KT 26/M03 A3007 RMK A01 T02641026  RH  015%=      5-min Rain = 0
KSB1 241714Z 09006KT 26/M03 A3007 RMK A01 T02641028  RH  015%=      5-min Rain = 0
KSB1 241715Z 08004KT 26/M03 A3007 RMK A01 T02631027  RH  015%=      5-min Rain = 0
KSB1 241716Z 08002KT 26/M03 A3007 RMK A01 T02641027  RH  015%=      5-min Rain = 0
KSB1 241717Z 03002KT 26/M03 A3007 RMK A01 T02631029  RH  014%=      5-min Rain = 0
KSB1 241718Z 04005KT 26/M03 A3007 RMK A01 T02631026  RH  015%=      5-min Rain = 0
KSB1 241719Z 05006KT 27/M03 A3007 RMK A01 T02661027  RH  014%=      5-min Rain = 0
KSB1 241720Z 05005KT 26/M04 A3007 RMK A01 T02631035  RH  014%=      5-min Rain = 0
KSB1 241721Z 03002KT 26/M04 A3007 RMK A01 T02601036  RH  014%=      5-min Rain = 0
KSB1 241722Z 26001KT 26/M03 A3007 RMK A01 T02591033  RH  014%=      5-min Rain = 0
KSB1 241723Z 16001KT 26/M03 A3007 RMK A01 T02591033  RH  014%=      5-min Rain = 0
KSB1 241724Z 12002KT 26/M03 A3007 RMK A01 T02611030  RH  015%=      5-min Rain = 0
KSB1 241725Z 13004KT 26/M03 A3007 RMK A01 T02641029  RH  014%=      5-min Rain = 0
KSB1 241726Z 14004KT 26/M03 A3007 RMK A01 T02641031  RH  014%=      5-min Rain = 0
KSB1 241727Z 16002KT 26/M03 A3007 RMK A01 T02611033  RH  014%=      5-min Rain = 0
KSB1 241728Z 05002KT 26/M03 A3007 RMK A01 T02601031  RH  014%=      5-min Rain = 0
KSB1 241729Z 05004KT 26/M03 A3007 RMK A01 T02621029  RH  015%=      5-min Rain = 0
KSB1 241730Z 05003KT 26/M03 A3007 RMK A01 T02631031  RH  014%=      5-min Rain = 0
KSB1 241731Z 12004KT 26/M03 A3007 RMK A01 T02631030  RH  014%=      5-min Rain = 0
KSB1 241732Z 13005KT 26/M03 A3007 RMK A01 T02631032  RH  014%=      5-min Rain = 0
KSB1 241733Z 12006KT 26/M03 A3006 RMK A01 T02631031  RH  014%=      5-min Rain = 0
KSB1 241734Z 13003KT 26/M03 A3006 RMK A01 T02641033  RH  014%=      5-min Rain = 0
KSB1 241735Z 08005KT 27/M03 A3006 RMK A01 T02651033  RH  014%=      5-min Rain = 0
KSB1 241736Z 08004KT 27/M03 A3006 RMK A01 T02661033  RH  014%=      5-min Rain = 0
KSB1 241737Z 06006KT 27/M03 A3006 RMK A01 T02661031  RH  014%=      5-min Rain = 0
KSB1 241738Z 06005KT 27/M03 A3006 RMK A01 T02651033  RH  014%=      5-min Rain = 0
KSB1 241739Z 03004KT 26/M03 A3006 RMK A01 T02631032  RH  014%=      5-min Rain = 0
KSB1 241740Z 04004KT 26/M03 A3006 RMK A01 T02631031  RH  014%=      5-min Rain = 0
KSB1 241741Z 13007G12KT 27/M03 A3006 RMK A01 T02661029  RH  014%=      5-min Rain = 0
KSB1 241742Z 15005KT 27/M03 A3006 RMK A01 T02711032  RH  013%=      5-min Rain = 0
KSB1 241743Z 19002KT 27/M03 A3006 RMK A01 T02701034  RH  013%=      5-min Rain = 0
KSB1 241744Z 23007KT 27/M03 A3006 RMK A01 T02711030  RH  014%=      5-min Rain = 0
KSB1 241745Z 21009KT 27/M03 A3006 RMK A01 T02711033  RH  013%=      5-min Rain = 0
KSB1 241746Z 20009KT 27/M03 A3006 RMK A01 T02701034  RH  013%=      5-min Rain = 0
KSB1 241747Z 21009KT 27/M04 A3006 RMK A01 T02681037  RH  013%=      5-min Rain = 0
KSB1 241748Z 23005KT 27/M04 A3006 RMK A01 T02661037  RH  013%=      5-min Rain = 0
KSB1 241749Z 21006KT 27/M04 A3006 RMK A01 T02681035  RH  013%=      5-min Rain = 0
KSB1 241750Z 20004KT 27/M04 A3006 RMK A01 T02701036  RH  013%=      5-min Rain = 0
KSB1 241751Z 22001KT 27/M04 A3006 RMK A01 T02691039  RH  013%=      5-min Rain = 0
KSB1 241752Z 22003KT 27/M03 A3006 RMK A01 T02691034  RH  013%=      5-min Rain = 0
KSB1 241753Z 24008KT 27/M03 A3006 RMK A01 T02721033  RH  013%=      5-min Rain = 0
KSB1 241754Z 24009KT 27/M04 A3006 RMK A01 T02741038  RH  013%=      5-min Rain = 0
KSB1 241755Z 21007KT 27/M04 A3006 RMK A01 T02721038  RH  013%=      5-min Rain = 0
KSB1 241756Z 18005KT 27/M04 A3006 RMK A01 T02701039  RH  013%=      5-min Rain = 0
KSB1 241757Z 21004KT 27/M04 A3006 RMK A01 T02691039  RH  013%=      5-min Rain = 0
KSB1 241758Z 22007KT 27/M04 A3006 RMK A01 T02691041  RH  013%=      5-min Rain = 0
KSB1 241759Z 22005KT 27/M04 A3006 RMK A01 T02691041  RH  013%=      5-min Rain = 0
KSB1 241800Z 21007KT 27/M04 A3006 RMK A01 T02681039  RH  013%=      5-min Rain = 0
KSB1 241801Z 20007KT 27/M04 A3006 RMK A01 T02701041  RH  013%=      5-min Rain = 0
KSB1 241802Z 21009KT 27/M05 A3006 RMK A01 T02711045  RH  012%=      5-min Rain = 0
KSB1 241803Z 21007KT 27/M05 A3006 RMK A01 T02721047  RH  012%=      5-min Rain = 0
KSB1 241804Z 21009KT 27/M05 A3006 RMK A01 T02711046  RH  012%=      5-min Rain = 0
KSB1 241805Z 21008KT 27/M04 A3006 RMK A01 T02721044  RH  012%=      5-min Rain = 0
KSB1 241806Z 21008KT 27/M05 A3006 RMK A01 T02741045  RH  012%=      5-min Rain = 0
KSB1 241807Z 19006KT 27/M04 A3006 RMK A01 T02731043  RH  012%=      5-min Rain = 0
KSB1 241808Z 20009KT 28/M04 A3006 RMK A01 T02761041  RH  012%=      5-min Rain = 0
KSB1 241809Z 21011KT 28/M04 A3005 RMK A01 T02771042  RH  012%=      5-min Rain = 0
KSB1 241810Z 21010KT 28/M05 A3005 RMK A01 T02771045  RH  012%=      5-min Rain = 0
KSB1 241811Z 20010KT 27/M05 A3005 RMK A01 T02731047  RH  012%=      5-min Rain = 0
KSB1 241812Z 20009KT 27/M05 A3005 RMK A01 T02731045  RH  012%=      5-min Rain = 0
KSB1 241813Z 19007KT 27/M05 A3005 RMK A01 T02721050  RH  012%=      5-min Rain = 0
KSB1 241814Z 22007KT 27/M05 A3005 RMK A01 T02711047  RH  012%=      5-min Rain = 0
KSB1 241815Z 25008KT 27/M05 A3005 RMK A01 T02721047  RH  012%=      5-min Rain = 0
KSB1 241816Z 23006KT 27/M05 A3005 RMK A01 T02741045  RH  012%=      5-min Rain = 0
KSB1 241817Z 20004KT 27/M05 A3005 RMK A01 T02741050  RH  012%=      5-min Rain = 0
KSB1 241818Z 22007KT 27/M05 A3005 RMK A01 T02731046  RH  012%=      5-min Rain = 0
KSB1 241819Z 23007KT 28/M05 A3005 RMK A01 T02751047  RH  012%=      5-min Rain = 0
KSB1 241820Z 24006KT 27/M05 A3005 RMK A01 T02741048  RH  012%=      5-min Rain = 0
KSB1 241821Z 23007KT 27/M05 A3005 RMK A01 T02741045  RH  012%=      5-min Rain = 0
KSB1 241822Z 25009KT 28/M04 A3005 RMK A01 T02771039  RH  012%=      5-min Rain = 0
KSB1 241823Z 26006KT 28/M05 A3005 RMK A01 T02781046  RH  012%=      5-min Rain = 0
KSB1 241824Z 29006KT 28/M04 A3005 RMK A01 T02761043  RH  012%=      5-min Rain = 0
KSB1 241825Z 29006KT 28/M04 A3005 RMK A01 T02781043  RH  012%=      5-min Rain = 0
KSB1 241826Z 32003KT 28/M04 A3005 RMK A01 T02761044  RH  012%=      5-min Rain = 0
KSB1 241827Z 33002KT 28/M05 A3005 RMK A01 T02751045  RH  012%=      5-min Rain = 0
KSB1 241828Z 21001KT 28/M04 A3005 RMK A01 T02761040  RH  012%=      5-min Rain = 0
KSB1 241829Z 23002KT 28/M04 A3004 RMK A01 T02781043  RH  012%=      5-min Rain = 0
KSB1 241830Z 20004KT 28/M04 A3004 RMK A01 T02791041  RH  012%=      5-min Rain = 0
KSB1 241831Z 17003KT 28/M04 A3004 RMK A01 T02781040  RH  012%=      5-min Rain = 0
KSB1 241832Z 15005KT 28/M04 A3004 RMK A01 T02811038  RH  012%=      5-min Rain = 0
KSB1 241833Z 16009KT 28/M04 A3004 RMK A01 T02831042  RH  012%=      5-min Rain = 0
KSB1 241834Z 15008KT 28/M05 A3004 RMK A01 T02841045  RH  011%=      5-min Rain = 0
KSB1 241835Z 17009KT 28/M05 A3004 RMK A01 T02821045  RH  011%=      5-min Rain = 0
KSB1 241836Z 15008KT 28/M04 A3004 RMK A01 T02831043  RH  012%=      5-min Rain = 0
KSB1 241837Z 14007KT 28/M04 A3004 RMK A01 T02831043  RH  012%=      5-min Rain = 0
KSB1 241838Z 17006KT 28/M04 A3004 RMK A01 T02821044  RH  012%=      5-min Rain = 0
KSB1 241839Z 18004KT 28/M04 A3004 RMK A01 T02811044  RH  012%=      5-min Rain = 0
KSB1 241840Z 20004KT 28/M04 A3004 RMK A01 T02811040  RH  012%=      5-min Rain = 0
KSB1 241841Z 19004KT 28/M04 A3004 RMK A01 T02811039  RH  012%=      5-min Rain = 0
KSB1 241842Z 13006KT 28/M04 A3004 RMK A01 T02801036  RH  012%=      5-min Rain = 0
KSB1 241843Z 11006KT 28/M04 A3004 RMK A01 T02841037  RH  012%=      5-min Rain = 0
KSB1 241844Z 14007KT 28/M04 A3004 RMK A01 T02841038  RH  012%=      5-min Rain = 0
KSB1 241845Z 14007KT 28/M04 A3004 RMK A01 T02821039  RH  012%=      5-min Rain = 0
KSB1 241846Z 17004KT 28/M04 A3004 RMK A01 T02811040  RH  012%=      5-min Rain = 0
KSB1 241847Z 16007KT 28/M04 A3004 RMK A01 T02801040  RH  012%=      5-min Rain = 0
KSB1 241848Z 15006KT 28/M04 A3004 RMK A01 T02811040  RH  012%=      5-min Rain = 0
KSB1 241849Z 13004KT 28/M04 A3004 RMK A01 T02821039  RH  012%=      5-min Rain = 0
KSB1 241850Z 13002KT 28/M04 A3003 RMK A01 T02841037  RH  012%=      5-min Rain = 0
KSB1 241851Z 02003KT 29/M04 A3003 RMK A01 T02861038  RH  012%=      5-min Rain = 0
KSB1 241852Z 06002KT 29/M04 A3003 RMK A01 T02861038  RH  012%=      5-min Rain = 0
KSB1 241853Z 13006KT 29/M04 A3003 RMK A01 T02861037  RH  012%=      5-min Rain = 0
KSB1 241854Z 12004KT 29/M03 A3003 RMK A01 T02881034  RH  012%=      5-min Rain = 0
KSB1 241855Z 08007KT 29/M03 A3003 RMK A01 T02921033  RH  012%=      5-min Rain = 0
KSB1 241856Z 19006KT 30/M03 A3003 RMK A01 T02951034  RH  011%=      5-min Rain = 0
KSB1 241857Z 17008KT 29/M04 A3003 RMK A01 T02941036  RH  011%=      5-min Rain = 0
KSB1 241858Z 17006KT 29/M04 A3003 RMK A01 T02911041  RH  011%=      5-min Rain = 0
KSB1 241859Z 17007KT 29/M04 A3003 RMK A01 T02861042  RH  011%=      5-min Rain = 0
KSB1 241900Z 19008KT 29/M04 A3003 RMK A01 T02861039  RH  012%=      5-min Rain = 0
KSB1 241901Z 16002KT 28/M04 A3003 RMK A01 T02841042  RH  012%=      5-min Rain = 0
KSB1 241902Z 15003KT 28/M04 A3003 RMK A01 T02831041  RH  012%=      5-min Rain = 0
KSB1 241903Z 17006KT 28/M04 A3003 RMK A01 T02841040  RH  012%=      5-min Rain = 0
KSB1 241904Z 16005KT 28/M04 A3003 RMK A01 T02831041  RH  012%=      5-min Rain = 0
KSB1 241905Z 12008KT 28/M04 A3002 RMK A01 T02831038  RH  012%=      5-min Rain = 0
KSB1 241906Z 13007G12KT 28/M04 A3002 RMK A01 T02841041  RH  012%=      5-min Rain = 0
KSB1 241907Z 16008KT 29/M04 A3002 RMK A01 T02851042  RH  012%=      5-min Rain = 0
KSB1 241908Z 18006KT 29/M05 A3002 RMK A01 T02851046  RH  011%=      5-min Rain = 0
KSB1 241909Z 19007KT 28/M05 A3002 RMK A01 T02841050  RH  011%=      5-min Rain = 0
KSB1 241910Z 20007KT 28/M04 A3002 RMK A01 T02821044  RH  012%=      5-min Rain = 0
KSB1 241911Z 22006KT 28/M05 A3002 RMK A01 T02831050  RH  011%=      5-min Rain = 0
KSB1 241912Z 19004KT 28/M05 A3002 RMK A01 T02811047  RH  011%=      5-min Rain = 0
KSB1 241913Z 20005KT 28/M05 A3002 RMK A01 T02831046  RH  011%=      5-min Rain = 0
KSB1 241914Z 25002KT 29/M04 A3002 RMK A01 T02851043  RH  011%=      5-min Rain = 0
KSB1 241915Z 20006G12KT 28/M05 A3002 RMK A01 T02831045  RH  011%=      5-min Rain = 0
KSB1 241916Z 21010KT 28/M04 A3002 RMK A01 T02841042  RH  012%=      5-min Rain = 0
KSB1 241917Z 20010KT 29/M04 A3002 RMK A01 T02851039  RH  012%=      5-min Rain = 0
KSB1 241918Z 20006KT 29/M05 A3002 RMK A01 T02861045  RH  011%=      5-min Rain = 0
KSB1 241919Z 20003KT 29/M04 A3002 RMK A01 T02861044  RH  011%=      5-min Rain = 0
KSB1 241920Z 18005KT 29/M05 A3002 RMK A01 T02861045  RH  011%=      5-min Rain = 0
KSB1 241921Z 20006KT 29/M04 A3002 RMK A01 T02871042  RH  011%=      5-min Rain = 0
KSB1 241922Z 17006G13KT 29/M04 A3002 RMK A01 T02871042  RH  011%=      5-min Rain = 0
KSB1 241923Z 15011KT 29/M04 A3002 RMK A01 T02921041  RH  011%=      5-min Rain = 0
KSB1 241924Z 17007KT 29/M05 A3002 RMK A01 T02911046  RH  011%=      5-min Rain = 0
KSB1 241925Z 13005KT 29/M05 A3001 RMK A01 T02901047  RH  011%=      5-min Rain = 0
KSB1 241926Z 14004KT 29/M05 A3001 RMK A01 T02871050  RH  011%=      5-min Rain = 0
KSB1 241927Z 14008KT 29/M05 A3001 RMK A01 T02871045  RH  011%=      5-min Rain = 0
KSB1 241928Z 13006KT 29/M05 A3001 RMK A01 T02891048  RH  011%=      5-min Rain = 0
KSB1 241929Z 14004KT 29/M05 A3001 RMK A01 T02871048  RH  011%=      5-min Rain = 0
KSB1 241930Z 23003KT 29/M05 A3001 RMK A01 T02881047  RH  011%=      5-min Rain = 0
KSB1 241931Z 24002KT 29/M05 A3001 RMK A01 T02881049  RH  011%=      5-min Rain = 0
KSB1 241932Z 25004KT 29/M05 A3001 RMK A01 T02891047  RH  011%=      5-min Rain = 0
KSB1 241933Z 24004KT 29/M05 A3001 RMK A01 T02901048  RH  011%=      5-min Rain = 0
KSB1 241934Z 19006KT 29/M05 A3001 RMK A01 T02891046  RH  011%=      5-min Rain = 0
KSB1 241935Z 19009G16KT 29/M05 A3001 RMK A01 T02911048  RH  011%=      5-min Rain = 0
KSB1 241936Z 22017KT 29/M05 A3001 RMK A01 T02931045  RH  011%=      5-min Rain = 0
KSB1 241937Z 22013KT 30/M04 A3001 RMK A01 T02991041  RH  011%=      5-min Rain = 0
KSB1 241938Z 22012KT 30/M05 A3001 RMK A01 T02991046  RH  010%=      5-min Rain = 0
KSB1 241939Z 22010G16KT 30/M05 A3001 RMK A01 T02971048  RH  010%=      5-min Rain = 0
KSB1 241940Z 24016KT 30/M05 A3001 RMK A01 T02981048  RH  010%=      5-min Rain = 0
KSB1 241941Z 25011KT 30/M05 A3001 RMK A01 T02991054  RH  010%=      5-min Rain = 0
KSB1 241942Z 25011KT 30/M05 A3001 RMK A01 T02991054  RH  010%=      5-min Rain = 0
KSB1 241943Z 25007KT 30/M06 A3001 RMK A01 T02951058  RH  010%=      5-min Rain = 0
KSB1 241944Z 24008KT 29/M06 A3001 RMK A01 T02921056  RH  010%=      5-min Rain = 0
KSB1 241945Z 24009KT 29/M05 A3001 RMK A01 T02921053  RH  010%=      5-min Rain = 0
KSB1 241946Z 26008KT 29/M05 A3001 RMK A01 T02931051  RH  010%=      5-min Rain = 0
KSB1 241947Z 27010KT 30/M05 A3001 RMK A01 T02961047  RH  010%=      5-min Rain = 0
KSB1 241948Z 26010KT 30/M05 A3001 RMK A01 T03011046  RH  010%=      5-min Rain = 0
KSB1 241949Z 26011KT 30/M05 A3001 RMK A01 T03011048  RH  010%=      5-min Rain = 0
KSB1 241950Z 26011KT 30/M05 A3001 RMK A01 T02991046  RH  010%=      5-min Rain = 0
KSB1 241951Z 26009KT 30/M05 A30 RMK A01 T02981048  RH  010%=      5-min Rain = 0
KSB1 241952Z 26007KT 30/M05 A3001 RMK A01 T02961048  RH  010%=      5-min Rain = 0
KSB1 241953Z 26004KT 29/M05 A30 RMK A01 T02931050  RH  010%=      5-min Rain = 0
KSB1 241954Z 28008KT 29/M05 A30 RMK A01 T02911048  RH  011%=      5-min Rain = 0
KSB1 241955Z 27007KT 29/M05 A30 RMK A01 T02921048  RH  011%=      5-min Rain = 0
KSB1 241956Z 27007KT 29/M05 A30 RMK A01 T02931046  RH  011%=      5-min Rain = 0
KSB1 241957Z 26005KT 30/M05 A30 RMK A01 T02951047  RH  011%=      5-min Rain = 0
KSB1 241958Z 29005G10KT 30/M05 A30 RMK A01 T02951048  RH  010%=      5-min Rain = 0
KSB1 241959Z 30006KT 30/M05 A30 RMK A01 T02951048  RH  010%=      5-min Rain = 0
KSB1 242000Z 33004KT 29/M05 A30 RMK A01 T02931049  RH  010%=      5-min Rain = 0
KSB1 242001Z 32005KT 29/M05 A30 RMK A01 T02931051  RH  010%=      5-min Rain = 0
KSB1 242002Z 30005KT 29/M05 A30 RMK A01 T02931052  RH  010%=      5-min Rain = 0
KSB1 242003Z 25006KT 29/M05 A30 RMK A01 T02921049  RH  010%=      5-min Rain = 0
KSB1 242004Z 24009KT 29/M06 A30 RMK A01 T02941056  RH  010%=      5-min Rain = 0
KSB1 242005Z 25009KT 30/M06 A30 RMK A01 T02971056  RH  010%=      5-min Rain = 0
KSB1 242006Z 27007KT 30/M06 A30 RMK A01 T02991058  RH  009%=      5-min Rain = 0
KSB1 242007Z 29007KT 30/M06 A30 RMK A01 T03011058  RH  009%=      5-min Rain = 0
KSB1 242008Z 25008KT 30/M06 A30 RMK A01 T02991059  RH  009%=      5-min Rain = 0
KSB1 242009Z 24007G12KT 30/M06 A30 RMK A01 T02961060  RH  009%=      5-min Rain = 0
KSB1 242010Z 21009KT 29/M06 A30 RMK A01 T02941059  RH  010%=      5-min Rain = 0
KSB1 242011Z 22010KT 30/M06 A30 RMK A01 T02971055  RH  010%=      5-min Rain = 0
KSB1 242012Z 24010KT 30/M06 A30 RMK A01 T02991055  RH  010%=      5-min Rain = 0
KSB1 242013Z 27012KT 30/M06 A30 RMK A01 T02991055  RH  010%=      5-min Rain = 0
KSB1 242014Z 28007KT 30/M06 A30 RMK A01 T02971056  RH  010%=      5-min Rain = 0
KSB1 242015Z 25007G14KT 30/M05 A2999 RMK A01 T02971054  RH  010%=      5-min Rain = 0
KSB1 242016Z 26012KT 30/M05 A2999 RMK A01 T03021047  RH  010%=      5-min Rain = 0
KSB1 242017Z 27013KT 31/M05 A2999 RMK A01 T03051053  RH  009%=      5-min Rain = 0
KSB1 242018Z 27010KT 30/M06 A2999 RMK A01 T03021057  RH  009%=      5-min Rain = 0
KSB1 242019Z 26010KT 30/M06 A2999 RMK A01 T02981056  RH  010%=      5-min Rain = 0
KSB1 242020Z 27011KT 30/M05 A2999 RMK A01 T02991053  RH  010%=      5-min Rain = 0
KSB1 242021Z 25013KT 30/M05 A2999 RMK A01 T03041050  RH  010%=      5-min Rain = 0
KSB1 242022Z 24013KT 31/M06 A2999 RMK A01 T03051055  RH  009%=      5-min Rain = 0
KSB1 242023Z 25010KT 30/M06 A2999 RMK A01 T03011058  RH  009%=      5-min Rain = 0
KSB1 242024Z 28008KT 30/M06 A2999 RMK A01 T02981057  RH  010%=      5-min Rain = 0
KSB1 242025Z 26008KT 30/M06 A2999 RMK A01 T02991055  RH  010%=      5-min Rain = 0
KSB1 242026Z 23010KT 30/M05 A2999 RMK A01 T03021053  RH  010%=      5-min Rain = 0
KSB1 242027Z 23005KT 30/M06 A2999 RMK A01 T03011055  RH  010%=      5-min Rain = 0
KSB1 242028Z 23003KT 30/M05 A2999 RMK A01 T03001054  RH  010%=      5-min Rain = 0
KSB1 242029Z 24004KT 30/M05 A2999 RMK A01 T03021054  RH  010%=      5-min Rain = 0
KSB1 242030Z 22004KT 30/M06 A2999 RMK A01 T03011056  RH  009%=      5-min Rain = 0
KSB1 242031Z 21004KT 30/M06 A2999 RMK A01 T03001055  RH  010%=      5-min Rain = 0
KSB1 242032Z 21005KT 30/M05 A2999 RMK A01 T03001054  RH  010%=      5-min Rain = 0
KSB1 242033Z 22007KT 30/M05 A2999 RMK A01 T03021049  RH  010%=      5-min Rain = 0
KSB1 242034Z 20009KT 30/M05 A2999 RMK A01 T03041048  RH  010%=      5-min Rain = 0
KSB1 242035Z 20008KT 30/M06 A2999 RMK A01 T03041059  RH  009%=      5-min Rain = 0
KSB1 242036Z 22006KT 30/M06 A2999 RMK A01 T03001064  RH  009%=      5-min Rain = 0
KSB1 242037Z 19006KT 30/M06 A2999 RMK A01 T02991056  RH  010%=      5-min Rain = 0
KSB1 242038Z 16008KT 31/M06 A2999 RMK A01 T03051057  RH  009%=      5-min Rain = 0
KSB1 242039Z 15010KT 31/M06 A2999 RMK A01 T03061060  RH  009%=      5-min Rain = 0
KSB1 242040Z 15006KT 30/M07 A2999 RMK A01 T03041065  RH  009%=      5-min Rain = 0
KSB1 242041Z 17008KT 30/M06 A2999 RMK A01 T03011061  RH  009%=      5-min Rain = 0
KSB1 242042Z 17007KT 30/M06 A2999 RMK A01 T03011064  RH  009%=      5-min Rain = 0
KSB1 242043Z 21006KT 30/M06 A2999 RMK A01 T02991060  RH  009%=      5-min Rain = 0
KSB1 242044Z 20006KT 30/M05 A2999 RMK A01 T03001054  RH  010%=      5-min Rain = 0
KSB1 242045Z 18001KT 30/M06 A2998 RMK A01 T02991057  RH  010%=      5-min Rain = 0
KSB1 242046Z 20001KT 30/M06 A2998 RMK A01 T02991055  RH  010%=      5-min Rain = 0
KSB1 242047Z 21004KT 30/M06 A2998 RMK A01 T03001055  RH  010%=      5-min Rain = 0
KSB1 242048Z 21002KT 30/M05 A2998 RMK A01 T03001054  RH  010%=      5-min Rain = 0
KSB1 242049Z 17003KT 30/M05 A2998 RMK A01 T03021054  RH  010%=      5-min Rain = 0
KSB1 242050Z 16007KT 30/M06 A2998 RMK A01 T03031055  RH  009%=      5-min Rain = 0
KSB1 242051Z 17008KT 31/M05 A2998 RMK A01 T03051054  RH  009%=      5-min Rain = 0
KSB1 242052Z 19009KT 31/M05 A2998 RMK A01 T03061049  RH  010%=      5-min Rain = 0
KSB1 242053Z 19013KT 31/M05 A2998 RMK A01 T03091050  RH  009%=      5-min Rain = 0
KSB1 242054Z 18012KT 31/M06 A2999 RMK A01 T03081058  RH  009%=      5-min Rain = 0
KSB1 242055Z 18007KT 30/M06 A2998 RMK A01 T03031061  RH  009%=      5-min Rain = 0
KSB1 242056Z 16006KT 30/M06 A2998 RMK A01 T03001060  RH  009%=      5-min Rain = 0
KSB1 242057Z 15005KT 30/M06 A2998 RMK A01 T03001060  RH  009%=      5-min Rain = 0
KSB1 242058Z 14002KT 30/M06 A2998 RMK A01 T02981062  RH  009%=      5-min Rain = 0
KSB1 242059Z 15000KT 30/M06 A2998 RMK A01 T02981060  RH  009%=      5-min Rain = 0
KSB1 242100Z 22002KT 30/M06 A2998 RMK A01 T02991061  RH  009%=      5-min Rain = 0
KSB1 242101Z 22004KT 30/M06 A2998 RMK A01 T03001056  RH  009%=      5-min Rain = 0
KSB1 242102Z 25003KT 30/M06 A2998 RMK A01 T03031056  RH  009%=      5-min Rain = 0
KSB1 242103Z 25002KT 30/M05 A2998 RMK A01 T03021054  RH  010%=      5-min Rain = 0
KSB1 242104Z 25008KT 31/M05 A2998 RMK A01 T03051050  RH  010%=      5-min Rain = 0
KSB1 242105Z 23012KT 31/M05 A2998 RMK A01 T03071045  RH  010%=      5-min Rain = 0
KSB1 242106Z 22009KT 31/M05 A2998 RMK A01 T03081049  RH  010%=      5-min Rain = 0
KSB1 242107Z 20009KT 31/M05 A2998 RMK A01 T03071053  RH  009%=      5-min Rain = 0
KSB1 242108Z 17008KT 30/M06 A2998 RMK A01 T03041055  RH  009%=      5-min Rain = 0
KSB1 242109Z 17007KT 30/M06 A2998 RMK A01 T03021057  RH  009%=      5-min Rain = 0
KSB1 242110Z 16006KT 30/M05 A2998 RMK A01 T03041054  RH  009%=      5-min Rain = 0
KSB1 242111Z 16004KT 30/M06 A2998 RMK A01 T03041057  RH  009%=      5-min Rain = 0
KSB1 242112Z 25004G10KT 30/M06 A2998 RMK A01 T03031056  RH  009%=      5-min Rain = 0
KSB1 242113Z 25010KT 30/M05 A2997 RMK A01 T03031048  RH  010%=      5-min Rain = 0
KSB1 242114Z 23008KT 31/M05 A2998 RMK A01 T03061045  RH  010%=      5-min Rain = 0
KSB1 242115Z 23007KT 31/M05 A2998 RMK A01 T03061049  RH  010%=      5-min Rain = 0
KSB1 242116Z 24005KT 30/M05 A2997 RMK A01 T03041049  RH  010%=      5-min Rain = 0
KSB1 242117Z 24004KT 30/M05 A2997 RMK A01 T03041046  RH  010%=      5-min Rain = 0
KSB1 242118Z 23008KT 31/M04 A2997 RMK A01 T03061044  RH  010%=      5-min Rain = 0
KSB1 242119Z 22011KT 31/M04 A2997 RMK A01 T03101040  RH  010%=      5-min Rain = 0
KSB1 242120Z 24010KT 31/M05 A2997 RMK A01 T03091048  RH  010%=      5-min Rain = 0
KSB1 242121Z 24008KT 31/M05 A2997 RMK A01 T03051048  RH  010%=      5-min Rain = 0
KSB1 242122Z 19005KT 30/M05 A2997 RMK A01 T03041050  RH  010%=      5-min Rain = 0
KSB1 242123Z 24003KT 30/M05 A2997 RMK A01 T03031047  RH  010%=      5-min Rain = 0
KSB1 242124Z 27007KT 30/M05 A2997 RMK A01 T03041049  RH  010%=      5-min Rain = 0
KSB1 242125Z 28010KT 30/M05 A2997 RMK A01 T03041050  RH  010%=      5-min Rain = 0
KSB1 242126Z 27009KT 30/M05 A2997 RMK A01 T03011052  RH  010%=      5-min Rain = 0
KSB1 242127Z 26007KT 30/M05 A2997 RMK A01 T03011049  RH  010%=      5-min Rain = 0
KSB1 242128Z 27004KT 30/M05 A2997 RMK A01 T03031049  RH  010%=      5-min Rain = 0
KSB1 242129Z 28004KT 31/M05 A2997 RMK A01 T03051049  RH  010%=      5-min Rain = 0
KSB1 242130Z 26003KT 31/M05 A2997 RMK A01 T03051052  RH  010%=      5-min Rain = 0
KSB1 242131Z 27002KT 30/M05 A2997 RMK A01 T03041053  RH  010%=      5-min Rain = 0
KSB1 242132Z 35003KT 30/M05 A2997 RMK A01 T03031052  RH  010%=      5-min Rain = 0
KSB1 242133Z 04003KT 30/M05 A2997 RMK A01 T03041052  RH  010%=      5-min Rain = 0
KSB1 242134Z 04002KT 30/M05 A2997 RMK A01 T03031051  RH  010%=      5-min Rain = 0
KSB1 242135Z 05004KT 30/M05 A2996 RMK A01 T03041048  RH  010%=      5-min Rain = 0
KSB1 242136Z 03003KT 31/M05 A2996 RMK A01 T03051047  RH  010%=      5-min Rain = 0
KSB1 242137Z 30003KT 31/M05 A2996 RMK A01 T03061051  RH  010%=      5-min Rain = 0
KSB1 242138Z 27003KT 30/M05 A2996 RMK A01 T03041053  RH  010%=      5-min Rain = 0
KSB1 242139Z 30004KT 30/M05 A2996 RMK A01 T03021054  RH  010%=      5-min Rain = 0
KSB1 242140Z 33004KT 30/M06 A2996 RMK A01 T03001055  RH  010%=      5-min Rain = 0
KSB1 242141Z 30004KT 30/M05 A2996 RMK A01 T02991053  RH  010%=      5-min Rain = 0
KSB1 242142Z 25007KT 30/M05 A2996 RMK A01 T03041046  RH  010%=      5-min Rain = 0
KSB1 242143Z 24008KT 31/M05 A2996 RMK A01 T03091048  RH  010%=      5-min Rain = 0
KSB1 242144Z 26008KT 31/M05 A2996 RMK A01 T03111048  RH  009%=      5-min Rain = 0
KSB1 242145Z 25011KT 31/M05 A2996 RMK A01 T03111049  RH  009%=      5-min Rain = 0
KSB1 242146Z 25011KT 31/M05 A2996 RMK A01 T03091052  RH  009%=      5-min Rain = 0
KSB1 242147Z 24009KT 31/M05 A2996 RMK A01 T03071051  RH  009%=      5-min Rain = 0
KSB1 242148Z 25008KT 31/M05 A2996 RMK A01 T03071050  RH  010%=      5-min Rain = 0
KSB1 242149Z 25008KT 31/M05 A2996 RMK A01 T03081049  RH  010%=      5-min Rain = 0
KSB1 242150Z 27007KT 31/M05 A2996 RMK A01 T03071053  RH  009%=      5-min Rain = 0
KSB1 242151Z 23006KT 31/M05 A2996 RMK A01 T03051051  RH  010%=      5-min Rain = 0
KSB1 242152Z 24005KT 31/M05 A2996 RMK A01 T03051052  RH  010%=      5-min Rain = 0
KSB1 242153Z 24003KT 30/M05 A2996 RMK A01 T03041054  RH  009%=      5-min Rain = 0
KSB1 242154Z 23001KT 30/M06 A2996 RMK A01 T03031056  RH  009%=      5-min Rain = 0
KSB1 242155Z 21001KT 30/M06 A2996 RMK A01 T03021055  RH  009%=      5-min Rain = 0
KSB1 242156Z 27001KT 30/M05 A2996 RMK A01 T03041053  RH  009%=      5-min Rain = 0
KSB1 242157Z 20005KT 31/M05 A2995 RMK A01 T03061052  RH  009%=      5-min Rain = 0
KSB1 242158Z 25002KT 31/M05 A2995 RMK A01 T03071052  RH  009%=      5-min Rain = 0
KSB1 242159Z 26007G12KT 31/M05 A2995 RMK A01 T03081051  RH  009%=      5-min Rain = 0
KSB1 242200Z 20007G12KT 31/M05 A2995 RMK A01 T03121046  RH  010%=      5-min Rain = 0
KSB1 242201Z 23010G18KT 31/M05 A2995 RMK A01 T03131048  RH  009%=      5-min Rain = 0
KSB1 242202Z 22011KT 31/M05 A2995 RMK A01 T03131048  RH  009%=      5-min Rain = 0
KSB1 242203Z 21009KT 31/M05 A2995 RMK A01 T03121048  RH  009%=      5-min Rain = 0
KSB1 242204Z 19010KT 31/M05 A2995 RMK A01 T03111050  RH  009%=      5-min Rain = 0
KSB1 242205Z 18008KT 31/M05 A2995 RMK A01 T03091053  RH  009%=      5-min Rain = 0
KSB1 242206Z 19007KT 31/M05 A2995 RMK A01 T03061054  RH  009%=      5-min Rain = 0
KSB1 242207Z 19006KT 30/M05 A2995 RMK A01 T03041054  RH  009%=      5-min Rain = 0
KSB1 242208Z 16006KT 31/M05 A2995 RMK A01 T03051052  RH  010%=      5-min Rain = 0
KSB1 242209Z 17005KT 31/M05 A2995 RMK A01 T03061053  RH  009%=      5-min Rain = 0
KSB1 242210Z 16003KT 31/M05 A2995 RMK A01 T03061053  RH  009%=      5-min Rain = 0
KSB1 242211Z 17002KT 31/M05 A2995 RMK A01 T03051052  RH  009%=      5-min Rain = 0
KSB1 242212Z 24001KT 31/M05 A2995 RMK A01 T03061053  RH  009%=      5-min Rain = 0
KSB1 242213Z 23002KT 31/M05 A2995 RMK A01 T03071054  RH  009%=      5-min Rain = 0
KSB1 242214Z 23001KT 31/M06 A2995 RMK A01 T03071056  RH  009%=      5-min Rain = 0
KSB1 242215Z 24001KT 31/M06 A2995 RMK A01 T03061055  RH  009%=      5-min Rain = 0
KSB1 242216Z 27005KT 31/M05 A2995 RMK A01 T03081051  RH  009%=      5-min Rain = 0
KSB1 242217Z 27008KT 31/M05 A2994 RMK A01 T03111051  RH  009%=      5-min Rain = 0
KSB1 242218Z 28008KT 31/M05 A2994 RMK A01 T03131054  RH  009%=      5-min Rain = 0
KSB1 242219Z 22013G21KT 31/M05 A2994 RMK A01 T03141053  RH  009%=      5-min Rain = 0
KSB1 242220Z 19016KT 31/M05 A2993 RMK A01 T03141050  RH  009%=      5-min Rain = 0
KSB1 242221Z 18007KT 32/M05 A2994 RMK A01 T03151051  RH  009%=      5-min Rain = 0
KSB1 242222Z 21006KT 32/M05 A2994 RMK A01 T03151054  RH  009%=      5-min Rain = 0
KSB1 242223Z 24011KT 31/M05 A2994 RMK A01 T03141050  RH  009%=      5-min Rain = 0
KSB1 242224Z 23015KT 32/M05 A2994 RMK A01 T03161050  RH  009%=      5-min Rain = 0
KSB1 242225Z 23013KT 32/M06 A2994 RMK A01 T03151057  RH  009%=      5-min Rain = 0
KSB1 242226Z 22010KT 31/M06 A2994 RMK A01 T03091056  RH  009%=      5-min Rain = 0
KSB1 242227Z 22010KT 31/M05 A2994 RMK A01 T03111050  RH  009%=      5-min Rain = 0
KSB1 242228Z 23007KT 31/M05 A2994 RMK A01 T03121054  RH  009%=      5-min Rain = 0
KSB1 242229Z 24007KT 31/M06 A2994 RMK A01 T03091056  RH  009%=      5-min Rain = 0
KSB1 242230Z 23010KT 31/M06 A2994 RMK A01 T03081055  RH  009%=      5-min Rain = 0
KSB1 242231Z 22006KT 31/M06 A2994 RMK A01 T03081055  RH  009%=      5-min Rain = 0
KSB1 242232Z 22003KT 31/M06 A2994 RMK A01 T03071059  RH  009%=      5-min Rain = 0
KSB1 242233Z 21004KT 31/M06 A2994 RMK A01 T03071056  RH  009%=      5-min Rain = 0
KSB1 242234Z 22007KT 31/M05 A2994 RMK A01 T03091054  RH  009%=      5-min Rain = 0
KSB1 242235Z 24008KT 31/M05 A2994 RMK A01 T03111052  RH  009%=      5-min Rain = 0
KSB1 242236Z 23011KT 31/M06 A2994 RMK A01 T03121056  RH  009%=      5-min Rain = 0
KSB1 242237Z 19005KT 31/M06 A2994 RMK A01 T03091062  RH  009%=      5-min Rain = 0
KSB1 242238Z 25005KT 31/M06 A2994 RMK A01 T03061061  RH  009%=      5-min Rain = 0
KSB1 242239Z 27005KT 31/M06 A2994 RMK A01 T03051062  RH  009%=      5-min Rain = 0
KSB1 242240Z 22005KT 30/M06 A2994 RMK A01 T03041059  RH  009%=      5-min Rain = 0
KSB1 242241Z 22009KT 31/M06 A2994 RMK A01 T03051057  RH  009%=      5-min Rain = 0
KSB1 242242Z 24010KT 31/M06 A2994 RMK A01 T03081060  RH  009%=      5-min Rain = 0
KSB1 242243Z 25011KT 31/M06 A2994 RMK A01 T03091060  RH  009%=      5-min Rain = 0
KSB1 242244Z 25009KT 31/M06 A2994 RMK A01 T03091061  RH  009%=      5-min Rain = 0
KSB1 242245Z 21006KT 31/M06 A2994 RMK A01 T03101057  RH  009%=      5-min Rain = 0
KSB1 242246Z 18007KT 31/M05 A2994 RMK A01 T03131054  RH  009%=      5-min Rain = 0
KSB1 242247Z 20006KT 31/M06 A2994 RMK A01 T03131061  RH  009%=      5-min Rain = 0
KSB1 242248Z 20007KT 31/M06 A2993 RMK A01 T03101062  RH  009%=      5-min Rain = 0
KSB1 242249Z 21008KT 31/M06 A2993 RMK A01 T03081056  RH  009%=      5-min Rain = 0
KSB1 242250Z 26009G14KT 31/M05 A2993 RMK A01 T03131051  RH  009%=      5-min Rain = 0
KSB1 242251Z 26013KT 32/M05 A2994 RMK A01 T03161051  RH  009%=      5-min Rain = 0
KSB1 242252Z 25012KT 32/M05 A2994 RMK A01 T03171054  RH  009%=      5-min Rain = 0
KSB1 242253Z 26013KT 31/M05 A2994 RMK A01 T03141054  RH  009%=      5-min Rain = 0
KSB1 242254Z 26014KT 32/M05 A2994 RMK A01 T03161054  RH  009%=      5-min Rain = 0
KSB1 242255Z 27012KT 32/M06 A2994 RMK A01 T03151057  RH  009%=      5-min Rain = 0
KSB1 242256Z 27011KT 31/M06 A2994 RMK A01 T03111059  RH  009%=      5-min Rain = 0
KSB1 242257Z 27011KT 31/M06 A2994 RMK A01 T03101058  RH  009%=      5-min Rain = 0
KSB1 242258Z 27009KT 31/M06 A2994 RMK A01 T03101058  RH  009%=      5-min Rain = 0
KSB1 242259Z 26008KT 31/M06 A2994 RMK A01 T03091060  RH  009%=      5-min Rain = 0
KSB1 242300Z 26007KT 31/M06 A2994 RMK A01 T03081059  RH  009%=      5-min Rain = 0
KSB1 242301Z 29009KT 31/M06 A2993 RMK A01 T03101055  RH  009%=      5-min Rain = 0
KSB1 242302Z 29009KT 31/M06 A2993 RMK A01 T03131055  RH  009%=      5-min Rain = 0
KSB1 242303Z 28006KT 31/M06 A2993 RMK A01 T03131061  RH  008%=      5-min Rain = 0
KSB1 242304Z 28005KT 31/M06 A2993 RMK A01 T03101061  RH  009%=      5-min Rain = 0
KSB1 242305Z 29004KT 31/M06 A2993 RMK A01 T03101060  RH  009%=      5-min Rain = 0
KSB1 242306Z 31003KT 31/M06 A2993 RMK A01 T03091062  RH  009%=      5-min Rain = 0
KSB1 242307Z 27003KT 31/M06 A2993 RMK A01 T03091061  RH  009%=      5-min Rain = 0
KSB1 242308Z 31003KT 31/M06 A2993 RMK A01 T03081060  RH  009%=      5-min Rain = 0
KSB1 242309Z 25001KT 31/M06 A2993 RMK A01 T03091061  RH  009%=      5-min Rain = 0
KSB1 242310Z 20000KT 31/M06 A2993 RMK A01 T03111059  RH  009%=      5-min Rain = 0
KSB1 242311Z 28004G9KT 31/M06 A2993 RMK A01 T03111061  RH  009%=      5-min Rain = 0
KSB1 242312Z 27007KT 31/M06 A2993 RMK A01 T03111063  RH  008%=      5-min Rain = 0
KSB1 242313Z 25009KT 31/M06 A2993 RMK A01 T03101062  RH  009%=      5-min Rain = 0
KSB1 242314Z 24009KT 31/M06 A2993 RMK A01 T03101061  RH  009%=      5-min Rain = 0
KSB1 242315Z 22009KT 31/M06 A2993 RMK A01 T03111061  RH  009%=      5-min Rain = 0
KSB1 242316Z 23011KT 31/M06 A2992 RMK A01 T03121058  RH  009%=      5-min Rain = 0
KSB1 242317Z 23011KT 31/M06 A2993 RMK A01 T03131062  RH  008%=      5-min Rain = 0
KSB1 242318Z 20007KT 31/M07 A2993 RMK A01 T03111065  RH  008%=      5-min Rain = 0
KSB1 242319Z 20006KT 31/M07 A2992 RMK A01 T03101066  RH  008%=      5-min Rain = 0
KSB1 242320Z 23006KT 31/M06 A2992 RMK A01 T03091064  RH  008%=      5-min Rain = 0
KSB1 242321Z 23008KT 31/M06 A2992 RMK A01 T03101060  RH  009%=      5-min Rain = 0
KSB1 242322Z 23010KT 31/M06 A2992 RMK A01 T03111062  RH  009%=      5-min Rain = 0
KSB1 242323Z 23009KT 31/M06 A2992 RMK A01 T03111060  RH  009%=      5-min Rain = 0
KSB1 242324Z 23009KT 31/M06 A2992 RMK A01 T03131059  RH  009%=      5-min Rain = 0
KSB1 242325Z 22009KT 31/M06 A2992 RMK A01 T03141061  RH  008%=      5-min Rain = 0
KSB1 242326Z 23007KT 31/M06 A2992 RMK A01 T03111064  RH  008%=      5-min Rain = 0
KSB1 242327Z 25005KT 31/M06 A2992 RMK A01 T03101063  RH  008%=      5-min Rain = 0
KSB1 242328Z 22003KT 31/M06 A2992 RMK A01 T03101062  RH  009%=      5-min Rain = 0
KSB1 242329Z 20004KT 31/M06 A2992 RMK A01 T03111063  RH  008%=      5-min Rain = 0
KSB1 242330Z 20004KT 31/M06 A2992 RMK A01 T03111064  RH  008%=      5-min Rain = 0
KSB1 242331Z 21006KT 31/M07 A2992 RMK A01 T03101065  RH  008%=      5-min Rain = 0
KSB1 242332Z 24007KT 31/M06 A2992 RMK A01 T03091063  RH  009%=      5-min Rain = 0
KSB1 242333Z 23009KT 31/M06 A2992 RMK A01 T03111058  RH  009%=      5-min Rain = 0
KSB1 242334Z 23007KT 31/M06 A2992 RMK A01 T03121062  RH  008%=      5-min Rain = 0
KSB1 242335Z 22006KT 31/M06 A2992 RMK A01 T03121064  RH  008%=      5-min Rain = 0
KSB1 242336Z 20007KT 31/M06 A2992 RMK A01 T03111063  RH  008%=      5-min Rain = 0
KSB1 242337Z 19007KT 31/M06 A2992 RMK A01 T03101063  RH  009%=      5-min Rain = 0
KSB1 242338Z 20007KT 31/M06 A2992 RMK A01 T03101064  RH  008%=      5-min Rain = 0
KSB1 242339Z 26004KT 31/M06 A2992 RMK A01 T03111060  RH  009%=      5-min Rain = 0
KSB1 242340Z 27003KT 31/M07 A2992 RMK A01 T03121065  RH  008%=      5-min Rain = 0
KSB1 242341Z 25002KT 31/M06 A2992 RMK A01 T03131063  RH  008%=      5-min Rain = 0
KSB1 242342Z 23002KT 31/M06 A2992 RMK A01 T03141062  RH  008%=      5-min Rain = 0
KSB1 242343Z 27003KT 32/M06 A2992 RMK A01 T03151063  RH  008%=      5-min Rain = 0
KSB1 242344Z 23007KT 32/M06 A2992 RMK A01 T03151063  RH  008%=      5-min Rain = 0
KSB1 242345Z 23007KT 31/M06 A2992 RMK A01 T03141061  RH  008%=      5-min Rain = 0
KSB1 242346Z 22005KT 31/M07 A2992 RMK A01 T03101066  RH  008%=      5-min Rain = 0
KSB1 242347Z 22006KT 31/M06 A2992 RMK A01 T03091064  RH  009%=      5-min Rain = 0
KSB1 242348Z 25007KT 31/M06 A2992 RMK A01 T03091060  RH  009%=      5-min Rain = 0
KSB1 242349Z 25007KT 31/M06 A2992 RMK A01 T03111059  RH  009%=      5-min Rain = 0
KSB1 242350Z 24007KT 31/M06 A2992 RMK A01 T03121061  RH  009%=      5-min Rain = 0
KSB1 242351Z 24007KT 31/M06 A2992 RMK A01 T03121062  RH  009%=      5-min Rain = 0
KSB1 242352Z 24007KT 31/M06 A2992 RMK A01 T03111064  RH  008%=      5-min Rain = 0
KSB1 242353Z 26005KT 31/M06 A2992 RMK A01 T03091064  RH  008%=      5-min Rain = 0
KSB1 242354Z 28005KT 31/M06 A2992 RMK A01 T03081063  RH  009%=      5-min Rain = 0
KSB1 242355Z 29003KT 31/M07 A2992 RMK A01 T03081066  RH  008%=      5-min Rain = 0
KSB1 242356Z 28002KT 31/M07 A2992 RMK A01 T03081065  RH  008%=      5-min Rain = 0
KSB1 242357Z 27003KT 31/M07 A2992 RMK A01 T03081065  RH  008%=      5-min Rain = 0
KSB1 242358Z 27004KT 31/M06 A2992 RMK A01 T03101063  RH  009%=      5-min Rain = 0
KSB1 242359Z 25004KT 31/M06 A2992 RMK A01 T03101064  RH  008%=      5-min Rain = 0
KSB1 250000Z 26004KT 31/M07 A2992 RMK A01 T03111065  RH  008%=      5-min Rain = 0
KSB1 250001Z 27002KT 31/M07 A2992 RMK A01 T03111065  RH  008%=      5-min Rain = 0
KSB1 250002Z 28001KT 31/M07 A2992 RMK A01 T03101067  RH  008%=      5-min Rain = 0
KSB1 250003Z 01000KT 31/M07 A2992 RMK A01 T03091068  RH  008%=      5-min Rain = 0
KSB1 250004Z 35001KT 31/M06 A2992 RMK A01 T03101063  RH  009%=      5-min Rain = 0
KSB1 250005Z 35001KT 31/M07 A2992 RMK A01 T03111066  RH  008%=      5-min Rain = 0
KSB1 250006Z 01001KT 31/M07 A2992 RMK A01 T03111066  RH  008%=      5-min Rain = 0
KSB1 250007Z 34001KT 31/M07 A2992 RMK A01 T03111065  RH  008%=      5-min Rain = 0
KSB1 250008Z 00001KT 31/M06 A2992 RMK A01 T03111064  RH  008%=      5-min Rain = 0
KSB1 250009Z 00003KT 31/M06 A2992 RMK A01 T03101064  RH  008%=      5-min Rain = 0
KSB1 250010Z 36003KT 31/M06 A2992 RMK A01 T03101063  RH  009%=      5-min Rain = 0
KSB1 250011Z 02001KT 31/M06 A2992 RMK A01 T03101062  RH  009%=      5-min Rain = 0
KSB1 250012Z 35002KT 31/M06 A2992 RMK A01 T03101063  RH  009%=      5-min Rain = 0
KSB1 250013Z 34003KT 31/M06 A2992 RMK A01 T03101062  RH  009%=      5-min Rain = 0
KSB1 250014Z 31005KT 31/M06 A2992 RMK A01 T03101056  RH  009%=      5-min Rain = 0
KSB1 250015Z 35006KT 31/M05 A2992 RMK A01 T03091053  RH  009%=      5-min Rain = 0
KSB1 250016Z 34007KT 31/M05 A2991 RMK A01 T03091051  RH  009%=      5-min Rain = 0
KSB1 250017Z 34009KT 31/M05 A2991 RMK A01 T03091052  RH  009%=      5-min Rain = 0
KSB1 250018Z 34007KT 31/M05 A2991 RMK A01 T03081053  RH  009%=      5-min Rain = 0
KSB1 250019Z 33007KT 31/M05 A2991 RMK A01 T03081052  RH  009%=      5-min Rain = 0
KSB1 250020Z 32007KT 31/M06 A2991 RMK A01 T03081055  RH  009%=      5-min Rain = 0
KSB1 250021Z 33005KT 31/M06 A2991 RMK A01 T03071059  RH  009%=      5-min Rain = 0
KSB1 250022Z 35008KT 31/M06 A2991 RMK A01 T03061055  RH  009%=      5-min Rain = 0
KSB1 250023Z 34009KT 31/M06 A2991 RMK A01 T03061055  RH  009%=      5-min Rain = 0
KSB1 250024Z 33008KT 31/M05 A2991 RMK A01 T03051053  RH  009%=      5-min Rain = 0
KSB1 250025Z 33009KT 31/M05 A2991 RMK A01 T03051053  RH  009%=      5-min Rain = 0
KSB1 250026Z 33011KT 31/M05 A2991 RMK A01 T03051054  RH  009%=      5-min Rain = 0
KSB1 250027Z 32008KT 31/M05 A2991 RMK A01 T03051054  RH  009%=      5-min Rain = 0
KSB1 250028Z 34008KT 31/M05 A2991 RMK A01 T03051054  RH  009%=      5-min Rain = 0
KSB1 250029Z 34009KT 31/M05 A2991 RMK A01 T03061054  RH  009%=      5-min Rain = 0
KSB1 250030Z 32008KT 31/M05 A2991 RMK A01 T03061052  RH  009%=      5-min Rain = 0
KSB1 250031Z 32009KT 31/M06 A2991 RMK A01 T03071055  RH  009%=      5-min Rain = 0
KSB1 250032Z 33009KT 31/M06 A2991 RMK A01 T03061056  RH  009%=      5-min Rain = 0
KSB1 250033Z 33010KT 30/M06 A2991 RMK A01 T03041057  RH  009%=      5-min Rain = 0
KSB1 250034Z 33010KT 30/M06 A2991 RMK A01 T03041056  RH  009%=      5-min Rain = 0
KSB1 250035Z 33009KT 30/M06 A2991 RMK A01 T03031056  RH  009%=      5-min Rain = 0
KSB1 250036Z 33007KT 30/M06 A2991 RMK A01 T03031056  RH  009%=      5-min Rain = 0
KSB1 250037Z 34007KT 30/M05 A2991 RMK A01 T03031053  RH  010%=      5-min Rain = 0
KSB1 250038Z 33006KT 30/M05 A2991 RMK A01 T03041054  RH  009%=      5-min Rain = 0
KSB1 250039Z 32007KT 30/M05 A2991 RMK A01 T03041054  RH  009%=      5-min Rain = 0
KSB1 250040Z 34006KT 30/M05 A2991 RMK A01 T03041054  RH  009%=      5-min Rain = 0
KSB1 250041Z 34009KT 31/M05 A2991 RMK A01 T03051053  RH  009%=      5-min Rain = 0
KSB1 250042Z 34009KT 31/M06 A2991 RMK A01 T03051055  RH  009%=      5-min Rain = 0
KSB1 250043Z 34006KT 30/M06 A2991 RMK A01 T03041056  RH  009%=      5-min Rain = 0
KSB1 250044Z 34006KT 30/M06 A2991 RMK A01 T03031056  RH  009%=      5-min Rain = 0
KSB1 250045Z 35006KT 30/M05 A2991 RMK A01 T03021054  RH  010%=      5-min Rain = 0
KSB1 250046Z 33008KT 30/M05 A2991 RMK A01 T03031053  RH  010%=      5-min Rain = 0
KSB1 250047Z 34008KT 30/M05 A2991 RMK A01 T03021054  RH  010%=      5-min Rain = 0
KSB1 250048Z 34006KT 30/M05 A2991 RMK A01 T03021054  RH  010%=      5-min Rain = 0
KSB1 250049Z 35006KT 30/M05 A2991 RMK A01 T03021053  RH  010%=      5-min Rain = 0
KSB1 250050Z 34006KT 30/M06 A2991 RMK A01 T03021055  RH  009%=      5-min Rain = 0
KSB1 250051Z 34008KT 30/M05 A2991 RMK A01 T03021053  RH  010%=      5-min Rain = 0
KSB1 250052Z 33005KT 30/M05 A2991 RMK A01 T03021054  RH  010%=      5-min Rain = 0
KSB1 250053Z 35005KT 30/M05 A2991 RMK A01 T03011053  RH  010%=      5-min Rain = 0
KSB1 250054Z 00006KT 30/M05 A2991 RMK A01 T03021051  RH  010%=      5-min Rain = 0
KSB1 250055Z 36006KT 30/M05 A2991 RMK A01 T03021053  RH  010%=      5-min Rain = 0
KSB1 250056Z 34007KT 30/M05 A2991 RMK A01 T03011052  RH  010%=      5-min Rain = 0
KSB1 250057Z 33007KT 30/M05 A2991 RMK A01 T03011052  RH  010%=      5-min Rain = 0
KSB1 250058Z 34008KT 30/M05 A2991 RMK A01 T03001053  RH  010%=      5-min Rain = 0
KSB1 250059Z 34007KT 30/M05 A2991 RMK A01 T03001054  RH  010%=      5-min Rain = 0
KSB1 250100Z 33008KT 30/M06 A2991 RMK A01 T02991055  RH  010%=      5-min Rain = 0
KSB1 250101Z 34007KT 30/M06 A2991 RMK A01 T02991055  RH  010%=      5-min Rain = 0
KSB1 250102Z 33007KT 30/M06 A2991 RMK A01 T02991055  RH  010%=      5-min Rain = 0
KSB1 250103Z 34006KT 30/M06 A2991 RMK A01 T02981056  RH  010%=      5-min Rain = 0
KSB1 250104Z 34005KT 30/M06 A2991 RMK A01 T02981055  RH  010%=      5-min Rain = 0
KSB1 250105Z 34006KT 30/M05 A2991 RMK A01 T02981053  RH  010%=      5-min Rain = 0
KSB1 250106Z 35005KT 30/M05 A2991 RMK A01 T02981051  RH  010%=      5-min Rain = 0
KSB1 250107Z 34006KT 30/M05 A2991 RMK A01 T02981051  RH  010%=      5-min Rain = 0
KSB1 250108Z 34008KT 30/M05 A2991 RMK A01 T02981051  RH  010%=      5-min Rain = 0
KSB1 250109Z 34007KT 30/M05 A2991 RMK A01 T02981051  RH  010%=      5-min Rain = 0
KSB1 250110Z 35007KT 30/M05 A2991 RMK A01 T02971050  RH  010%=      5-min Rain = 0
KSB1 250111Z 35007KT 30/M05 A2991 RMK A01 T02961051  RH  010%=      5-min Rain = 0
KSB1 250112Z 35008KT 30/M05 A2991 RMK A01 T02961049  RH  010%=      5-min Rain = 0
KSB1 250113Z 35007KT 30/M05 A2991 RMK A01 T02951049  RH  010%=      5-min Rain = 0
KSB1 250114Z 35008KT 30/M05 A2991 RMK A01 T02951050  RH  010%=      5-min Rain = 0
KSB1 250115Z 36006KT 30/M05 A2991 RMK A01 T02951051  RH  010%=      5-min Rain = 0
KSB1 250116Z 00007KT 29/M05 A2991 RMK A01 T02941051  RH  010%=      5-min Rain = 0
KSB1 250117Z 35007KT 29/M05 A2991 RMK A01 T02931054  RH  010%=      5-min Rain = 0
KSB1 250118Z 00005KT 29/M05 A2991 RMK A01 T02931052  RH  010%=      5-min Rain = 0
KSB1 250119Z 35005KT 29/M05 A2991 RMK A01 T02921048  RH  011%=      5-min Rain = 0
KSB1 250120Z 35006KT 29/M05 A2991 RMK A01 T02921046  RH  011%=      5-min Rain = 0
KSB1 250121Z 34007KT 29/M05 A2991 RMK A01 T02921048  RH  011%=      5-min Rain = 0
KSB1 250122Z 33006KT 29/M05 A2991 RMK A01 T02921049  RH  010%=      5-min Rain = 0
KSB1 250123Z 33008KT 29/M05 A2991 RMK A01 T02911051  RH  010%=      5-min Rain = 0
KSB1 250124Z 33007KT 29/M05 A2991 RMK A01 T02911052  RH  010%=      5-min Rain = 0
KSB1 250125Z 33006KT 29/M05 A2991 RMK A01 T02901052  RH  010%=      5-min Rain = 0
KSB1 250126Z 33006KT 29/M05 A2991 RMK A01 T02901051  RH  010%=      5-min Rain = 0
KSB1 250127Z 34007KT 29/M05 A2992 RMK A01 T02901049  RH  011%=      5-min Rain = 0
KSB1 250128Z 34007KT 29/M05 A2991 RMK A01 T02891050  RH  011%=      5-min Rain = 0
KSB1 250129Z 34006KT 29/M05 A2992 RMK A01 T02881050  RH  011%=      5-min Rain = 0
KSB1 250130Z 34007KT 29/M05 A2992 RMK A01 T02871048  RH  011%=      5-min Rain = 0
KSB1 250131Z 34007KT 29/M05 A2992 RMK A01 T02861048  RH  011%=      5-min Rain = 0
KSB1 250132Z 34007KT 29/M05 A2992 RMK A01 T02861047  RH  011%=      5-min Rain = 0
KSB1 250133Z 35007KT 29/M05 A2992 RMK A01 T02851046  RH  011%=      5-min Rain = 0
KSB1 250134Z 35006KT 28/M05 A2992 RMK A01 T02841045  RH  011%=      5-min Rain = 0
KSB1 250135Z 35006KT 28/M05 A2992 RMK A01 T02831045  RH  011%=      5-min Rain = 0
KSB1 250136Z 34006KT 28/M04 A2992 RMK A01 T02821044  RH  011%=      5-min Rain = 0
KSB1 250137Z 34007KT 28/M04 A2992 RMK A01 T02811044  RH  012%=      5-min Rain = 0
KSB1 250138Z 34007KT 28/M05 A2992 RMK A01 T02811045  RH  012%=      5-min Rain = 0
KSB1 250139Z 34007KT 28/M05 A2992 RMK A01 T02801046  RH  012%=      5-min Rain = 0
KSB1 250140Z 35007KT 28/M05 A2992 RMK A01 T02801045  RH  012%=      5-min Rain = 0
KSB1 250141Z 35007KT 28/M05 A2992 RMK A01 T02791045  RH  012%=      5-min Rain = 0
KSB1 250142Z 35007KT 28/M05 A2992 RMK A01 T02781046  RH  012%=      5-min Rain = 0
KSB1 250143Z 36006KT 28/M05 A2992 RMK A01 T02781046  RH  012%=      5-min Rain = 0
KSB1 250144Z 36006KT 28/M05 A2992 RMK A01 T02771045  RH  012%=      5-min Rain = 0
KSB1 250145Z 36007KT 28/M05 A2992 RMK A01 T02761045  RH  012%=      5-min Rain = 0
KSB1 250146Z 36007KT 28/M05 A2992 RMK A01 T02751046  RH  012%=      5-min Rain = 0
KSB1 250147Z 36007KT 28/M05 A2992 RMK A01 T02751046  RH  012%=      5-min Rain = 0
KSB1 250148Z 36006KT 28/M05 A2992 RMK A01 T02751046  RH  012%=      5-min Rain = 0
KSB1 250149Z 35007KT 27/M05 A2992 RMK A01 T02741045  RH  012%=      5-min Rain = 0
KSB1 250150Z 35006KT 27/M05 A2992 RMK A01 T02731045  RH  012%=      5-min Rain = 0
KSB1 250151Z 34006KT 27/M05 A2992 RMK A01 T02731046  RH  012%=      5-min Rain = 0
KSB1 250152Z 34006KT 27/M05 A2992 RMK A01 T02721046  RH  012%=      5-min Rain = 0
KSB1 250153Z 33005KT 27/M05 A2992 RMK A01 T02721045  RH  012%=      5-min Rain = 0
KSB1 250154Z 34005KT 27/M04 A2992 RMK A01 T02701044  RH  012%=      5-min Rain = 0
KSB1 250155Z 33006KT 27/M04 A2992 RMK A01 T02701043  RH  013%=      5-min Rain = 0
KSB1 250156Z 33006KT 27/M04 A2992 RMK A01 T02691043  RH  013%=      5-min Rain = 0
KSB1 250157Z 33006KT 27/M04 A2992 RMK A01 T02691042  RH  013%=      5-min Rain = 0
KSB1 250158Z 33006KT 27/M04 A2992 RMK A01 T02681042  RH  013%=      5-min Rain = 0
KSB1 250159Z 34006KT 27/M04 A2992 RMK A01 T02681043  RH  013%=      5-min Rain = 0
KSB1 250200Z 33006KT 27/M04 A2992 RMK A01 T02681043  RH  013%=      5-min Rain = 0
KSB1 250201Z 34007KT 27/M04 A2992 RMK A01 T02681043  RH  013%=      5-min Rain = 0
KSB1 250202Z 34006KT 27/M04 A2992 RMK A01 T02671044  RH  013%=      5-min Rain = 0
KSB1 250203Z 34006KT 27/M04 A2992 RMK A01 T02671044  RH  013%=      5-min Rain = 0
KSB1 250204Z 34006KT 27/M05 A2992 RMK A01 T02661045  RH  013%=      5-min Rain = 0
KSB1 250205Z 34006KT 27/M05 A2992 RMK A01 T02661045  RH  013%=      5-min Rain = 0
KSB1 250206Z 34006KT 27/M05 A2993 RMK A01 T02661045  RH  013%=      5-min Rain = 0
KSB1 250207Z 34006KT 27/M05 A2993 RMK A01 T02651045  RH  013%=      5-min Rain = 0
KSB1 250208Z 34006KT 27/M05 A2993 RMK A01 T02651045  RH  013%=      5-min Rain = 0
KSB1 250209Z 34006KT 27/M05 A2993 RMK A01 T02651046  RH  013%=      5-min Rain = 0
KSB1 250210Z 34006KT 26/M05 A2993 RMK A01 T02641046  RH  013%=      5-min Rain = 0
KSB1 250211Z 34006KT 26/M05 A2993 RMK A01 T02641047  RH  013%=      5-min Rain = 0
KSB1 250212Z 34006KT 26/M05 A2993 RMK A01 T02641046  RH  013%=      5-min Rain = 0
KSB1 250213Z 34006KT 26/M05 A2993 RMK A01 T02631047  RH  013%=      5-min Rain = 0
KSB1 250214Z 34006KT 26/M05 A2994 RMK A01 T02621047  RH  013%=      5-min Rain = 0
KSB1 250215Z 34006KT 26/M05 A2994 RMK A01 T02621047  RH  013%=      5-min Rain = 0
KSB1 250216Z 34006KT 26/M05 A2994 RMK A01 T02621047  RH  013%=      5-min Rain = 0
KSB1 250217Z 34007KT 26/M05 A2994 RMK A01 T02611048  RH  013%=      5-min Rain = 0
KSB1 250218Z 34006KT 26/M05 A2994 RMK A01 T02611049  RH  013%=      5-min Rain = 0
KSB1 250219Z 34007KT 26/M05 A2994 RMK A01 T02611049  RH  013%=      5-min Rain = 0
KSB1 250220Z 33007KT 26/M05 A2994 RMK A01 T02621049  RH  012%=      5-min Rain = 0
KSB1 250221Z 33007KT 26/M05 A2994 RMK A01 T02621049  RH  013%=      5-min Rain = 0
KSB1 250222Z 33007KT 26/M05 A2994 RMK A01 T02621048  RH  013%=      5-min Rain = 0
KSB1 250223Z 33007KT 26/M05 A2994 RMK A01 T02611049  RH  013%=      5-min Rain = 0
KSB1 250224Z 33008KT 26/M05 A2994 RMK A01 T02611050  RH  012%=      5-min Rain = 0
KSB1 250225Z 34009KT 26/M05 A2994 RMK A01 T02611051  RH  012%=      5-min Rain = 0
KSB1 250226Z 33009KT 26/M05 A2994 RMK A01 T02621052  RH  012%=      5-min Rain = 0
KSB1 250227Z 33008KT 26/M05 A2994 RMK A01 T02621052  RH  012%=      5-min Rain = 0
KSB1 250228Z 33007KT 26/M05 A2994 RMK A01 T02621051  RH  012%=      5-min Rain = 0
KSB1 250229Z 33008KT 26/M05 A2994 RMK A01 T02621050  RH  012%=      5-min Rain = 0
KSB1 250230Z 33007KT 26/M05 A2994 RMK A01 T02611051  RH  012%=      5-min Rain = 0
KSB1 250231Z 33007KT 26/M05 A2994 RMK A01 T02601050  RH  013%=      5-min Rain = 0
KSB1 250232Z 33007KT 26/M05 A2994 RMK A01 T02591051  RH  013%=      5-min Rain = 0
KSB1 250233Z 33007KT 26/M05 A2994 RMK A01 T02591051  RH  013%=      5-min Rain = 0
KSB1 250234Z 33008KT 26/M05 A2994 RMK A01 T02581051  RH  013%=      5-min Rain = 0
KSB1 250235Z 34007KT 26/M05 A2994 RMK A01 T02571051  RH  013%=      5-min Rain = 0
KSB1 250236Z 34008KT 26/M05 A2994 RMK A01 T02571051  RH  013%=      5-min Rain = 0
KSB1 250237Z 34007KT 26/M05 A2994 RMK A01 T02561050  RH  013%=      5-min Rain = 0
KSB1 250238Z 33008KT 26/M05 A2994 RMK A01 T02551050  RH  013%=      5-min Rain = 0
KSB1 250239Z 33008KT 25/M05 A2994 RMK A01 T02541050  RH  013%=      5-min Rain = 0
KSB1 250240Z 33008KT 25/M05 A2994 RMK A01 T02531049  RH  013%=      5-min Rain = 0
KSB1 250241Z 32008KT 25/M05 A2994 RMK A01 T02531048  RH  013%=      5-min Rain = 0
KSB1 250242Z 33008KT 25/M05 A2994 RMK A01 T02531048  RH  013%=      5-min Rain = 0
KSB1 250243Z 33008KT 25/M05 A2994 RMK A01 T02531048  RH  013%=      5-min Rain = 0
KSB1 250244Z 33008KT 25/M05 A2994 RMK A01 T02521047  RH  013%=      5-min Rain = 0
KSB1 250245Z 33008KT 25/M05 A2994 RMK A01 T02521047  RH  014%=      5-min Rain = 0
KSB1 250246Z 33008KT 25/M05 A2994 RMK A01 T02511047  RH  014%=      5-min Rain = 0
KSB1 250247Z 33008KT 25/M05 A2994 RMK A01 T02501046  RH  014%=      5-min Rain = 0
KSB1 250248Z 34008KT 25/M05 A2994 RMK A01 T02481046  RH  014%=      5-min Rain = 0
KSB1 250249Z 33008KT 25/M05 A2994 RMK A01 T02481045  RH  014%=      5-min Rain = 0
KSB1 250250Z 33008KT 25/M05 A2994 RMK A01 T02461045  RH  014%=      5-min Rain = 0
KSB1 250251Z 33008KT 25/M05 A2994 RMK A01 T02461045  RH  014%=      5-min Rain = 0
KSB1 250252Z 33008KT 25/M05 A2994 RMK A01 T02461045  RH  014%=      5-min Rain = 0
KSB1 250253Z 33008KT 25/M05 A2994 RMK A01 T02461046  RH  014%=      5-min Rain = 0
KSB1 250254Z 34008KT 25/M05 A2994 RMK A01 T02461047  RH  014%=      5-min Rain = 0
KSB1 250255Z 34008KT 25/M05 A2994 RMK A01 T02461047  RH  014%=      5-min Rain = 0
KSB1 250256Z 34008KT 25/M05 A2994 RMK A01 T02461048  RH  014%=      5-min Rain = 0
KSB1 250257Z 34008KT 25/M05 A2994 RMK A01 T02471048  RH  014%=      5-min Rain = 0
KSB1 250258Z 34008KT 25/M05 A2994 RMK A01 T02471049  RH  014%=      5-min Rain = 0
KSB1 250259Z 34008KT 25/M05 A2995 RMK A01 T02481051  RH  013%=      5-min Rain = 0
KSB1 250300Z 34008KT 25/M05 A2995 RMK A01 T02491052  RH  013%=      5-min Rain = 0
KSB1 250301Z 34008KT 25/M05 A2995 RMK A01 T02511052  RH  013%=      5-min Rain = 0
KSB1 250302Z 34008KT 25/M05 A2995 RMK A01 T02521053  RH  013%=      5-min Rain = 0
KSB1 250303Z 34008KT 25/M05 A2995 RMK A01 T02521053  RH  013%=      5-min Rain = 0
KSB1 250304Z 34008KT 25/M05 A2995 RMK A01 T02531054  RH  013%=      5-min Rain = 0
KSB1 250305Z 34008KT 25/M05 A2995 RMK A01 T02531054  RH  013%=      5-min Rain = 0
KSB1 250306Z 34008KT 25/M05 A2995 RMK A01 T02531054  RH  013%=      5-min Rain = 0
KSB1 250307Z 34008KT 25/M05 A2995 RMK A01 T02531054  RH  013%=      5-min Rain = 0
KSB1 250308Z 34008KT 25/M05 A2995 RMK A01 T02531054  RH  013%=      5-min Rain = 0
KSB1 250309Z 34008KT 25/M05 A2995 RMK A01 T02521053  RH  013%=      5-min Rain = 0
KSB1 250310Z 34008KT 25/M05 A2995 RMK A01 T02511053  RH  013%=      5-min Rain = 0
KSB1 250311Z 34007KT 25/M05 A2995 RMK A01 T02511054  RH  013%=      5-min Rain = 0
KSB1 250312Z 34007KT 25/M05 A2995 RMK A01 T02511053  RH  013%=      5-min Rain = 0
KSB1 250313Z 34007KT 25/M05 A2995 RMK A01 T02501054  RH  013%=      5-min Rain = 0
KSB1 250314Z 34007KT 25/M05 A2995 RMK A01 T02501054  RH  013%=      5-min Rain = 0
KSB1 250315Z 34007KT 25/M05 A2995 RMK A01 T02501053  RH  013%=      5-min Rain = 0
KSB1 250316Z 34007KT 25/M05 A2995 RMK A01 T02501054  RH  013%=      5-min Rain = 0
KSB1 250317Z 35008KT 25/M05 A2995 RMK A01 T02491054  RH  013%=      5-min Rain = 0
KSB1 250318Z 35008KT 25/M05 A2995 RMK A01 T02481054  RH  013%=      5-min Rain = 0
KSB1 250319Z 35008KT 25/M05 A2995 RMK A01 T02481053  RH  013%=      5-min Rain = 0
KSB1 250320Z 35008KT 25/M05 A2995 RMK A01 T02481053  RH  013%=      5-min Rain = 0
KSB1 250321Z 35008KT 25/M05 A2995 RMK A01 T02471053  RH  013%=      5-min Rain = 0
KSB1 250322Z 35008KT 25/M05 A2995 RMK A01 T02471054  RH  013%=      5-min Rain = 0
KSB1 250323Z 35007KT 25/M05 A2995 RMK A01 T02471054  RH  013%=      5-min Rain = 0
KSB1 250324Z 35007KT 25/M05 A2995 RMK A01 T02471054  RH  013%=      5-min Rain = 0
KSB1 250325Z 35007KT 25/M05 A2995 RMK A01 T02471053  RH  013%=      5-min Rain = 0
KSB1 250326Z 35007KT 25/M05 A2995 RMK A01 T02461054  RH  013%=      5-min Rain = 0
KSB1 250327Z 35007KT 25/M05 A2995 RMK A01 T02461054  RH  013%=      5-min Rain = 0
KSB1 250328Z 36007KT 25/M05 A2995 RMK A01 T02461054  RH  013%=      5-min Rain = 0
KSB1 250329Z 36007KT 25/M05 A2995 RMK A01 T02461054  RH  013%=      5-min Rain = 0
KSB1 250330Z 00007KT 25/M05 A2995 RMK A01 T02461053  RH  013%=      5-min Rain = 0
KSB1 250331Z 00007KT 25/M05 A2995 RMK A01 T02461054  RH  013%=      5-min Rain = 0
KSB1 250332Z 01008KT 25/M06 A2995 RMK A01 T02461055  RH  013%=      5-min Rain = 0
KSB1 250333Z 01007KT 25/M06 A2995 RMK A01 T02471055  RH  013%=      5-min Rain = 0
KSB1 250334Z 01008KT 25/M06 A2995 RMK A01 T02471055  RH  013%=      5-min Rain = 0
KSB1 250335Z 01007KT 25/M06 A2995 RMK A01 T02481055  RH  013%=      5-min Rain = 0
KSB1 250336Z 01007KT 25/M06 A2995 RMK A01 T02481055  RH  013%=      5-min Rain = 0
KSB1 250337Z 01007KT 25/M06 A2995 RMK A01 T02481055  RH  013%=      5-min Rain = 0
KSB1 250338Z 02006KT 25/M06 A2995 RMK A01 T02481056  RH  013%=      5-min Rain = 0
KSB1 250339Z 01006KT 25/M06 A2995 RMK A01 T02481056  RH  013%=      5-min Rain = 0
KSB1 250340Z 02006KT 25/M05 A2995 RMK A01 T02481054  RH  013%=      5-min Rain = 0
KSB1 250341Z 01005KT 25/M05 A2995 RMK A01 T02461054  RH  013%=      5-min Rain = 0
KSB1 250342Z 02005KT 25/M05 A2995 RMK A01 T02461054  RH  013%=      5-min Rain = 0
KSB1 250343Z 00004KT 25/M05 A2995 RMK A01 T02451054  RH  013%=      5-min Rain = 0
KSB1 250344Z 01005KT 25/M05 A2995 RMK A01 T02451053  RH  013%=      5-min Rain = 0
KSB1 250345Z 36005KT 25/M06 A2995 RMK A01 T02451055  RH  013%=      5-min Rain = 0
KSB1 250346Z 00006KT 25/M06 A2995 RMK A01 T02451055  RH  013%=      5-min Rain = 0
KSB1 250347Z 36005KT 25/M06 A2996 RMK A01 T02451055  RH  013%=      5-min Rain = 0
KSB1 250348Z 00004KT 25/M05 A2996 RMK A01 T02451053  RH  013%=      5-min Rain = 0
KSB1 250349Z 36004KT 24/M05 A2996 RMK A01 T02431053  RH  014%=      5-min Rain = 0
KSB1 250350Z 35004KT 24/M05 A2996 RMK A01 T02421053  RH  014%=      5-min Rain = 0
KSB1 250351Z 35004KT 24/M05 A2996 RMK A01 T02421054  RH  014%=      5-min Rain = 0
KSB1 250352Z 34004KT 24/M05 A2996 RMK A01 T02421053  RH  014%=      5-min Rain = 0
KSB1 250353Z 35005KT 24/M05 A2996 RMK A01 T02421054  RH  014%=      5-min Rain = 0
KSB1 250354Z 34005KT 24/M05 A2996 RMK A01 T02421054  RH  014%=      5-min Rain = 0
KSB1 250355Z 34005KT 24/M06 A2996 RMK A01 T02421055  RH  013%=      5-min Rain = 0
KSB1 250356Z 34005KT 24/M06 A2996 RMK A01 T02441055  RH  013%=      5-min Rain = 0
KSB1 250357Z 34006KT 24/M06 A2996 RMK A01 T02441056  RH  013%=      5-min Rain = 0
KSB1 250358Z 35007KT 25/M06 A2996 RMK A01 T02461057  RH  013%=      5-min Rain = 0
KSB1 250359Z 35006KT 25/M06 A2996 RMK A01 T02481057  RH  013%=      5-min Rain = 0
KSB1 250400Z 35006KT 25/M06 A2996 RMK A01 T02481056  RH  013%=      5-min Rain = 0
KSB1 250401Z 01006KT 25/M06 A2996 RMK A01 T02481056  RH  013%=      5-min Rain = 0
KSB1 250402Z 35004KT 25/M06 A2996 RMK A01 T02471055  RH  013%=      5-min Rain = 0
KSB1 250403Z 36004KT 25/M05 A2996 RMK A01 T02461054  RH  013%=      5-min Rain = 0
KSB1 250404Z 00004KT 25/M05 A2996 RMK A01 T02451054  RH  013%=      5-min Rain = 0
KSB1 250405Z 00004KT 24/M05 A2996 RMK A01 T02431053  RH  014%=      5-min Rain = 0
KSB1 250406Z 00004KT 24/M05 A2996 RMK A01 T02411053  RH  014%=      5-min Rain = 0
KSB1 250407Z 35005KT 24/M05 A2996 RMK A01 T02401054  RH  014%=      5-min Rain = 0
KSB1 250408Z 35005KT 24/M05 A2996 RMK A01 T02391053  RH  014%=      5-min Rain = 0
KSB1 250409Z 36006KT 24/M05 A2996 RMK A01 T02381052  RH  014%=      5-min Rain = 0
KSB1 250410Z 00006KT 24/M05 A2996 RMK A01 T02371053  RH  014%=      5-min Rain = 0
KSB1 250411Z 00006KT 24/M06 A2996 RMK A01 T02371055  RH  014%=      5-min Rain = 0
KSB1 250412Z 01005KT 24/M05 A2996 RMK A01 T02381053  RH  014%=      5-min Rain = 0
KSB1 250413Z 01005KT 24/M05 A2996 RMK A01 T02361051  RH  014%=      5-min Rain = 0
KSB1 250414Z 02005KT 23/M05 A2996 RMK A01 T02341051  RH  015%=      5-min Rain = 0
KSB1 250415Z 03004KT 23/M05 A2996 RMK A01 T02331051  RH  015%=      5-min Rain = 0
KSB1 250416Z 01004KT 23/M05 A2996 RMK A01 T02311051  RH  015%=      5-min Rain = 0
KSB1 250417Z 35004KT 23/M05 A2996 RMK A01 T02301051  RH  015%=      5-min Rain = 0
KSB1 250418Z 34004KT 23/M05 A2997 RMK A01 T02291051  RH  015%=      5-min Rain = 0
KSB1 250419Z 35006KT 23/M05 A2997 RMK A01 T02291051  RH  015%=      5-min Rain = 0
KSB1 250420Z 34006KT 23/M05 A2997 RMK A01 T02291053  RH  015%=      5-min Rain = 0
KSB1 250421Z 35006KT 23/M05 A2997 RMK A01 T02311054  RH  014%=      5-min Rain = 0
KSB1 250422Z 34005KT 23/M05 A2997 RMK A01 T02331054  RH  014%=      5-min Rain = 0
KSB1 250423Z 35005KT 24/M05 A2997 RMK A01 T02351054  RH  014%=      5-min Rain = 0
KSB1 250424Z 01005KT 24/M05 A2997 RMK A01 T02351053  RH  014%=      5-min Rain = 0
KSB1 250425Z 00005KT 24/M05 A2997 RMK A01 T02351051  RH  015%=      5-min Rain = 0
KSB1 250426Z 01007KT 23/M05 A2997 RMK A01 T02331050  RH  015%=      5-min Rain = 0
KSB1 250427Z 01007KT 23/M05 A2997 RMK A01 T02311053  RH  015%=      5-min Rain = 0
KSB1 250428Z 01008KT 23/M06 A2997 RMK A01 T02331055  RH  014%=      5-min Rain = 0
KSB1 250429Z 00007KT 24/M05 A2997 RMK A01 T02371054  RH  014%=      5-min Rain = 0
KSB1 250430Z 01009KT 24/M05 A2997 RMK A01 T02391054  RH  014%=      5-min Rain = 0
KSB1 250431Z 36008KT 24/M05 A2997 RMK A01 T02391054  RH  014%=      5-min Rain = 0
KSB1 250432Z 00008KT 24/M05 A2997 RMK A01 T02391053  RH  014%=      5-min Rain = 0
KSB1 250433Z 35007KT 24/M05 A2997 RMK A01 T02381052  RH  014%=      5-min Rain = 0
KSB1 250434Z 00008KT 24/M05 A2997 RMK A01 T02371053  RH  014%=      5-min Rain = 0
KSB1 250435Z 36007KT 24/M05 A2997 RMK A01 T02381053  RH  014%=      5-min Rain = 0
KSB1 250436Z 36008KT 24/M05 A2997 RMK A01 T02391053  RH  014%=      5-min Rain = 0
KSB1 250437Z 01007KT 24/M05 A2997 RMK A01 T02391050  RH  014%=      5-min Rain = 0
KSB1 250438Z 01009KT 24/M05 A2997 RMK A01 T02381045  RH  015%=      5-min Rain = 0
KSB1 250439Z 01009KT 24/M03 A2997 RMK A01 T02381030  RH  017%=      5-min Rain = 0
KSB1 250440Z 01009KT 24/M02 A2997 RMK A01 T02381021  RH  018%=      5-min Rain = 0
KSB1 250441Z 01010KT 24/M02 A2997 RMK A01 T02391015  RH  018%=      5-min Rain = 0
KSB1 250442Z 01008KT 24/M01 A2997 RMK A01 T02401009  RH  019%=      5-min Rain = 0
KSB1 250443Z 01009KT 24/M00 A2997 RMK A01 T02401003  RH  020%=      5-min Rain = 0
KSB1 250444Z 01010KT 24/01 A2997 RMK A01 T02390005  RH  021%=      5-min Rain = 0
KSB1 250445Z 02010KT 24/01 A2997 RMK A01 T02380013  RH  023%=      5-min Rain = 0
KSB1 250446Z 02011KT 24/02 A2997 RMK A01 T02370017  RH  024%=      5-min Rain = 0
KSB1 250447Z 02012KT 24/03 A2997 RMK A01 T02350026  RH  025%=      5-min Rain = 0
KSB1 250448Z 02014KT 23/04 A2996 RMK A01 T02340037  RH  028%=      5-min Rain = 0
KSB1 250449Z 03013KT 23/04 A2996 RMK A01 T02330042  RH  029%=      5-min Rain = 0
KSB1 250450Z 03013KT 23/04 A2997 RMK A01 T02330044  RH  029%=      5-min Rain = 0
KSB1 250451Z 03013KT 23/05 A2996 RMK A01 T02320045  RH  030%=      5-min Rain = 0
KSB1 250452Z 03012KT 23/05 A2997 RMK A01 T02310046  RH  030%=      5-min Rain = 0
KSB1 250453Z 03013KT 23/05 A2997 RMK A01 T02310050  RH  031%=      5-min Rain = 0
KSB1 250454Z 03011KT 23/05 A2997 RMK A01 T02310051  RH  031%=      5-min Rain = 0
KSB1 250455Z 03010KT 23/05 A2997 RMK A01 T02310050  RH  031%=      5-min Rain = 0
KSB1 250456Z 02010KT 23/05 A2997 RMK A01 T02300048  RH  031%=      5-min Rain = 0
KSB1 250457Z 02009KT 23/05 A2997 RMK A01 T02290048  RH  031%=      5-min Rain = 0
KSB1 250458Z 02009KT 23/05 A2997 RMK A01 T02280047  RH  031%=      5-min Rain = 0
KSB1 250459Z 02008KT 23/05 A2997 RMK A01 T02280047  RH  031%=      5-min Rain = 0

Page generated in 0.1439 seconds.